Time,TemperatureF,DewpointF,PressureIn,WindDirection,WindDirectionDegrees,WindSpeedMPH,WindSpeedGustMPH,Humidity,HourlyPrecipIn,Conditions,Clouds,dailyrainin,SoftwareType,DateUTC
2013-01-17 00:00:00,25.5,16.7,30.18,SSW,205,3.3,4.1,69,0.00,,OVC004,0.00,VWS V14.01,2013-01-17 06:00:00,
2013-01-17 00:02:00,25.7,16.8,30.18,SSW,205,3.3,3.5,69,0.00,,OVC004,0.00,VWS V14.01,2013-01-17 06:02:00,
2013-01-17 00:03:00,25.9,17.0,30.18,SSW,205,3.3,3.5,69,0.00,,CLR,0.00,VWS V14.01,2013-01-17 06:03:00,
2013-01-17 00:04:00,25.9,17.0,30.18,SSW,205,2.8,3.5,69,0.00,,OVC004,0.00,VWS V14.01,2013-01-17 06:04:00,
2013-01-17 00:06:00,26.1,17.2,30.18,SSW,205,0.0,3.5,69,0.00,,OVC004,0.00,VWS V14.01,2013-01-17 06:06:00,
2013-01-17 00:08:00,26.1,17.2,30.18,SSW,207,3.9,4.1,69,0.00,,CLR,0.00,VWS V14.01,2013-01-17 06:08:00,
2013-01-17 00:10:00,26.2,17.4,30.18,SW,221,3.9,4.7,69,0.00,,OVC004,0.00,VWS V14.01,2013-01-17 06:10:00,
2013-01-17 00:12:00,26.2,17.4,30.18,SW,221,3.3,5.2,69,0.00,,OVC004,0.00,VWS V14.01,2013-01-17 06:12:00,
2013-01-17 00:13:00,26.4,17.5,30.18,SW,220,3.9,4.1,69,0.00,,CLR,0.00,VWS V14.01,2013-01-17 06:13:00,
2013-01-17 00:14:00,26.4,17.5,30.18,SSW,210,3.9,5.2,69,0.00,,OVC004,0.00,VWS V14.01,2013-01-17 06:14:00,
2013-01-17 00:16:00,26.6,17.7,30.18,SSW,211,3.3,4.7,69,0.00,,OVC004,0.00,VWS V14.01,2013-01-17 06:16:00,
2013-01-17 00:18:00,26.6,17.7,30.18,SSW,211,2.8,4.7,69,0.00,,CLR,0.00,VWS V14.01,2013-01-17 06:18:00,
2013-01-17 00:20:00,26.6,17.7,30.18,SSW,198,0.0,4.1,69,0.00,,OVC004,0.00,VWS V14.01,2013-01-17 06:20:00,
2013-01-17 00:22:00,26.6,17.7,30.18,SSW,200,0.0,4.1,69,0.00,,OVC004,0.00,VWS V14.01,2013-01-17 06:22:00,
2013-01-17 00:23:00,26.6,17.7,30.18,SSW,202,0.0,4.1,69,0.00,,CLR,0.00,VWS V14.01,2013-01-17 06:23:00,
2013-01-17 00:24:00,26.6,17.7,30.18,SSW,202,0.0,4.1,69,0.00,,OVC004,0.00,VWS V14.01,2013-01-17 06:24:00,
2013-01-17 00:26:00,26.6,17.7,30.18,SSW,205,3.3,4.1,69,0.00,,OVC004,0.00,VWS V14.01,2013-01-17 06:26:00,
2013-01-17 00:28:00,26.4,17.5,30.18,SSW,210,3.9,4.7,69,0.00,,CLR,0.00,VWS V14.01,2013-01-17 06:28:00,
2013-01-17 00:30:00,26.4,17.5,30.18,SSW,210,3.3,4.1,69,0.00,,OVC004,0.00,VWS V14.01,2013-01-17 06:30:00,
2013-01-17 00:32:00,26.6,17.7,30.18,SSW,211,3.3,4.1,69,0.00,,OVC004,0.00,VWS V14.01,2013-01-17 06:32:00,
2013-01-17 00:33:00,26.6,17.7,30.18,SW,218,3.9,4.1,69,0.00,,CLR,0.00,VWS V14.01,2013-01-17 06:33:00,
2013-01-17 00:34:00,26.6,17.7,30.18,SW,219,3.3,4.1,69,0.00,,OVC004,0.00,VWS V14.01,2013-01-17 06:34:00,
2013-01-17 00:36:00,26.6,17.7,30.18,SW,231,3.9,4.7,69,0.00,,OVC004,0.00,VWS V14.01,2013-01-17 06:36:00,
2013-01-17 00:38:00,26.6,17.7,30.18,SW,231,3.3,4.7,69,0.00,,CLR,0.00,VWS V14.01,2013-01-17 06:38:00,
2013-01-17 00:40:00,26.8,17.9,30.18,SW,230,2.8,4.7,69,0.00,,OVC004,0.00,VWS V14.01,2013-01-17 06:40:00,
2013-01-17 00:42:00,26.8,17.9,30.18,SW,230,3.3,3.5,69,0.00,,OVC004,0.00,VWS V14.01,2013-01-17 06:42:00,
2013-01-17 00:43:00,26.8,17.9,30.18,SW,230,2.8,4.1,69,0.00,,CLR,0.00,VWS V14.01,2013-01-17 06:43:00,
2013-01-17 00:44:00,26.6,17.7,30.18,SW,230,0.0,4.1,69,0.00,,OVC004,0.00,VWS V14.01,2013-01-17 06:44:00,
2013-01-17 00:46:00,26.6,17.7,30.18,SW,230,0.0,0.0,69,0.00,,OVC004,0.00,VWS V14.01,2013-01-17 06:46:00,
2013-01-17 00:48:00,26.6,17.7,30.18,SW,230,0.0,0.0,69,0.00,,OVC004,0.00,VWS V14.01,2013-01-17 06:48:00,
2013-01-17 00:49:00,26.6,17.7,30.18,SW,230,0.0,0.0,69,0.00,,CLR,0.00,VWS V14.01,2013-01-17 06:49:00,
2013-01-17 00:50:00,26.6,17.7,30.18,SW,230,3.9,4.1,69,0.00,,OVC004,0.00,VWS V14.01,2013-01-17 06:50:00,
2013-01-17 00:52:00,26.4,17.5,30.18,SW,229,3.9,4.7,69,0.00,,OVC004,0.00,VWS V14.01,2013-01-17 06:52:00,
2013-01-17 00:54:00,26.4,17.5,30.21,SW,229,3.9,4.7,69,0.00,,CLR,0.00,VWS V14.01,2013-01-17 06:54:00,
2013-01-17 00:56:00,26.4,17.5,30.21,SW,229,3.3,4.1,69,0.00,,OVC004,0.00,VWS V14.01,2013-01-17 06:56:00,
2013-01-17 00:58:00,26.4,17.5,30.21,SW,229,3.3,4.1,69,0.00,,OVC004,0.00,VWS V14.01,2013-01-17 06:58:00,
2013-01-17 00:59:00,26.4,17.5,30.21,SW,229,0.0,4.1,69,0.00,,CLR,0.00,VWS V14.01,2013-01-17 06:59:00,
2013-01-17 01:00:00,26.2,17.4,30.21,SW,229,0.0,3.5,69,0.00,,OVC004,0.00,VWS V14.01,2013-01-17 07:00:00,
2013-01-17 01:02:00,26.2,17.4,30.21,SW,229,0.0,0.0,69,0.00,,OVC004,0.00,VWS V14.01,2013-01-17 07:02:00,
2013-01-17 01:04:00,26.1,17.2,30.21,SW,229,0.0,0.0,69,0.00,,CLR,0.00,VWS V14.01,2013-01-17 07:04:00,
2013-01-17 01:06:00,26.1,17.2,30.21,SW,229,0.0,0.0,69,0.00,,OVC004,0.00,VWS V14.01,2013-01-17 07:06:00,
2013-01-17 01:08:00,25.9,17.0,30.21,SW,229,0.0,0.0,69,0.00,,OVC004,0.00,VWS V14.01,2013-01-17 07:08:00,
2013-01-17 01:09:00,25.9,17.0,30.21,SW,229,0.0,0.0,69,0.00,,CLR,0.00,VWS V14.01,2013-01-17 07:09:00,
2013-01-17 01:10:00,25.9,17.0,30.21,SW,229,0.0,0.0,69,0.00,,OVC004,0.00,VWS V14.01,2013-01-17 07:10:00,
2013-01-17 01:12:00,25.7,16.8,30.21,SW,229,0.0,0.0,69,0.00,,OVC004,0.00,VWS V14.01,2013-01-17 07:12:00,
2013-01-17 01:14:00,25.7,16.8,30.21,SW,229,0.0,0.0,69,0.00,,CLR,0.00,VWS V14.01,2013-01-17 07:14:00,
2013-01-17 01:16:00,25.5,16.7,30.21,SW,229,0.0,0.0,69,0.00,,OVC004,0.00,VWS V14.01,2013-01-17 07:16:00,
2013-01-17 01:18:00,25.5,16.7,30.21,SW,229,0.0,0.0,69,0.00,,OVC004,0.00,VWS V14.01,2013-01-17 07:18:00,
2013-01-17 01:19:00,25.5,16.7,30.21,SW,229,3.3,3.5,69,0.00,,CLR,0.00,VWS V14.01,2013-01-17 07:19:00,
2013-01-17 01:20:00,25.5,16.7,30.21,SW,229,3.3,3.5,69,0.00,,OVC004,0.00,VWS V14.01,2013-01-17 07:20:00,
2013-01-17 01:22:00,25.3,16.5,30.21,SW,229,3.3,3.5,69,0.00,,OVC004,0.00,VWS V14.01,2013-01-17 07:22:00,
2013-01-17 01:24:00,25.3,16.5,30.21,SW,229,0.0,3.5,69,0.00,,CLR,0.00,VWS V14.01,2013-01-17 07:24:00,
2013-01-17 01:26:00,25.3,16.5,30.21,SW,229,0.0,0.0,69,0.00,,OVC004,0.00,VWS V14.01,2013-01-17 07:26:00,
2013-01-17 01:28:00,25.3,16.5,30.21,SW,229,0.0,0.0,69,0.00,,OVC004,0.00,VWS V14.01,2013-01-17 07:28:00,
2013-01-17 01:29:00,25.3,16.5,30.21,SW,229,0.0,0.0,69,0.00,,CLR,0.00,VWS V14.01,2013-01-17 07:29:00,
2013-01-17 01:30:00,25.2,16.3,30.21,SW,229,0.0,0.0,69,0.00,,OVC004,0.00,VWS V14.01,2013-01-17 07:30:00,
2013-01-17 01:32:00,25.2,16.3,30.21,SW,229,0.0,0.0,69,0.00,,OVC004,0.00,VWS V14.01,2013-01-17 07:32:00,
2013-01-17 01:34:00,25.0,16.1,30.21,SW,229,0.0,0.0,69,0.00,,CLR,0.00,VWS V14.01,2013-01-17 07:34:00,
2013-01-17 01:36:00,25.0,16.1,30.21,SW,229,0.0,0.0,69,0.00,,OVC004,0.00,VWS V14.01,2013-01-17 07:36:00,
2013-01-17 01:38:00,25.0,16.1,30.21,SW,229,0.0,0.0,69,0.00,,OVC004,0.00,VWS V14.01,2013-01-17 07:38:00,
2013-01-17 01:39:00,25.0,16.1,30.21,SW,229,0.0,0.0,69,0.00,,CLR,0.00,VWS V14.01,2013-01-17 07:39:00,
2013-01-17 01:40:00,25.0,16.1,30.21,SW,229,0.0,0.0,69,0.00,,OVC004,0.00,VWS V14.01,2013-01-17 07:40:00,
2013-01-17 01:42:00,25.0,16.1,30.21,SW,229,0.0,0.0,69,0.00,,OVC004,0.00,VWS V14.01,2013-01-17 07:42:00,
2013-01-17 01:44:00,24.8,16.0,30.21,SW,229,0.0,0.0,69,0.00,,CLR,0.00,VWS V14.01,2013-01-17 07:44:00,
2013-01-17 01:46:00,24.8,16.0,30.21,SW,229,0.0,0.0,69,0.00,,OVC004,0.00,VWS V14.01,2013-01-17 07:46:00,
2013-01-17 01:48:00,24.6,15.8,30.21,SW,229,0.0,0.0,69,0.00,,OVC004,0.00,VWS V14.01,2013-01-17 07:48:00,
2013-01-17 01:49:00,24.6,15.8,30.21,SW,229,0.0,0.0,69,0.00,,CLR,0.00,VWS V14.01,2013-01-17 07:49:00,
2013-01-17 01:50:00,24.6,15.8,30.21,SW,229,0.0,0.0,69,0.00,,OVC004,0.00,VWS V14.01,2013-01-17 07:50:00,
2013-01-17 01:52:00,24.4,15.6,30.21,SW,229,0.0,0.0,69,0.00,,OVC004,0.00,VWS V14.01,2013-01-17 07:52:00,
2013-01-17 01:54:00,24.3,15.4,30.21,SW,229,0.0,0.0,69,0.00,,CLR,0.00,VWS V14.01,2013-01-17 07:54:00,
2013-01-17 01:56:00,24.3,15.4,30.21,SW,229,0.0,0.0,69,0.00,,OVC004,0.00,VWS V14.01,2013-01-17 07:56:00,
2013-01-17 01:58:00,24.1,15.3,30.21,SW,229,0.0,0.0,69,0.00,,OVC004,0.00,VWS V14.01,2013-01-17 07:58:00,
2013-01-17 01:59:00,24.1,15.3,30.21,SW,229,0.0,0.0,69,0.00,,CLR,0.00,VWS V14.01,2013-01-17 07:59:00,
2013-01-17 02:00:00,24.1,15.3,30.21,SW,229,0.0,0.0,69,0.00,,OVC004,0.00,VWS V14.01,2013-01-17 08:00:00,
2013-01-17 02:02:00,24.1,15.3,30.21,SW,229,0.0,0.0,69,0.00,,OVC004,0.00,VWS V14.01,2013-01-17 08:02:00,
2013-01-17 02:04:00,24.3,15.9,30.21,SW,229,0.0,0.0,70,0.00,,CLR,0.00,VWS V14.01,2013-01-17 08:04:00,
2013-01-17 02:06:00,24.3,15.9,30.21,SW,229,0.0,0.0,70,0.00,,OVC004,0.00,VWS V14.01,2013-01-17 08:06:00,
2013-01-17 02:08:00,24.4,16.1,30.21,SW,229,0.0,0.0,70,0.00,,OVC004,0.00,VWS V14.01,2013-01-17 08:08:00,
2013-01-17 02:09:00,24.4,16.1,30.21,SW,229,0.0,0.0,70,0.00,,CLR,0.00,VWS V14.01,2013-01-17 08:09:00,
2013-01-17 02:10:00,24.4,16.1,30.21,SW,229,0.0,0.0,70,0.00,,OVC004,0.00,VWS V14.01,2013-01-17 08:10:00,
2013-01-17 02:12:00,24.4,16.1,30.21,SW,229,0.0,0.0,70,0.00,,OVC004,0.00,VWS V14.01,2013-01-17 08:12:00,
2013-01-17 02:14:00,24.3,15.9,30.21,SW,229,0.0,0.0,70,0.00,,CLR,0.00,VWS V14.01,2013-01-17 08:14:00,
2013-01-17 02:16:00,24.3,15.9,30.21,SW,229,0.0,0.0,70,0.00,,OVC004,0.00,VWS V14.01,2013-01-17 08:16:00,
2013-01-17 02:18:00,24.1,15.7,30.21,SW,229,0.0,0.0,70,0.00,,OVC004,0.00,VWS V14.01,2013-01-17 08:18:00,
2013-01-17 02:19:00,23.9,15.1,30.21,SW,229,0.0,0.0,69,0.00,,CLR,0.00,VWS V14.01,2013-01-17 08:19:00,
2013-01-17 02:20:00,23.9,15.1,30.21,SW,229,0.0,0.0,69,0.00,,OVC004,0.00,VWS V14.01,2013-01-17 08:20:00,
2013-01-17 02:22:00,23.7,14.9,30.21,SW,229,0.0,0.0,69,0.00,,OVC004,0.00,VWS V14.01,2013-01-17 08:22:00,
2013-01-17 02:24:00,23.5,14.8,30.21,SW,229,0.0,0.0,69,0.00,,CLR,0.00,VWS V14.01,2013-01-17 08:24:00,
2013-01-17 02:26:00,23.5,14.8,30.21,SW,229,0.0,0.0,69,0.00,,OVC004,0.00,VWS V14.01,2013-01-17 08:26:00,
2013-01-17 02:28:00,23.4,15.0,30.21,SW,229,0.0,0.0,70,0.00,,OVC004,0.00,VWS V14.01,2013-01-17 08:28:00,
2013-01-17 02:29:00,23.4,15.0,30.21,SW,229,0.0,0.0,70,0.00,,CLR,0.00,VWS V14.01,2013-01-17 08:29:00,
2013-01-17 02:30:00,23.4,15.0,30.21,SW,229,0.0,0.0,70,0.00,,OVC004,0.00,VWS V14.01,2013-01-17 08:30:00,
2013-01-17 02:32:00,23.4,15.0,30.21,SW,229,0.0,0.0,70,0.00,,OVC004,0.00,VWS V14.01,2013-01-17 08:32:00,
2013-01-17 02:34:00,23.4,15.0,30.21,SW,229,0.0,0.0,70,0.00,,CLR,0.00,VWS V14.01,2013-01-17 08:34:00,
2013-01-17 02:36:00,23.4,15.0,30.21,SW,229,0.0,0.0,70,0.00,,OVC004,0.00,VWS V14.01,2013-01-17 08:36:00,
2013-01-17 02:38:00,23.4,15.0,30.21,SW,229,0.0,0.0,70,0.00,,OVC004,0.00,VWS V14.01,2013-01-17 08:38:00,
2013-01-17 02:39:00,23.4,15.0,30.21,SW,229,0.0,0.0,70,0.00,,CLR,0.00,VWS V14.01,2013-01-17 08:39:00,
2013-01-17 02:40:00,23.4,15.0,30.21,SW,229,0.0,0.0,70,0.00,,OVC004,0.00,VWS V14.01,2013-01-17 08:40:00,
2013-01-17 02:42:00,23.4,15.0,30.21,SW,229,0.0,0.0,70,0.00,,OVC004,0.00,VWS V14.01,2013-01-17 08:42:00,
2013-01-17 02:44:00,23.5,15.2,30.21,SW,229,0.0,0.0,70,0.00,,CLR,0.00,VWS V14.01,2013-01-17 08:44:00,
2013-01-17 02:46:00,23.7,15.4,30.21,SW,229,0.0,0.0,70,0.00,,OVC004,0.00,VWS V14.01,2013-01-17 08:46:00,
2013-01-17 02:48:00,23.7,15.4,30.21,SW,229,0.0,0.0,70,0.00,,OVC004,0.00,VWS V14.01,2013-01-17 08:48:00,
2013-01-17 02:49:00,23.9,15.5,30.21,SW,229,0.0,0.0,70,0.00,,CLR,0.00,VWS V14.01,2013-01-17 08:49:00,
2013-01-17 02:50:00,23.9,15.5,30.21,SW,229,0.0,0.0,70,0.00,,OVC004,0.00,VWS V14.01,2013-01-17 08:50:00,
2013-01-17 02:52:00,23.9,15.5,30.21,SW,229,0.0,0.0,70,0.00,,OVC004,0.00,VWS V14.01,2013-01-17 08:52:00,
2013-01-17 02:54:00,23.9,15.5,30.21,SW,229,0.0,0.0,70,0.00,,CLR,0.00,VWS V14.01,2013-01-17 08:54:00,
2013-01-17 02:56:00,23.9,15.5,30.21,SW,229,0.0,0.0,70,0.00,,OVC004,0.00,VWS V14.01,2013-01-17 08:56:00,
2013-01-17 02:58:00,23.7,15.4,30.21,SW,229,0.0,0.0,70,0.00,,OVC004,0.00,VWS V14.01,2013-01-17 08:58:00,
2013-01-17 02:59:00,23.7,15.4,30.21,SW,229,0.0,0.0,70,0.00,,CLR,0.00,VWS V14.01,2013-01-17 08:59:00,
2013-01-17 03:00:00,23.7,15.4,30.21,SW,229,0.0,0.0,70,0.00,,OVC004,0.00,VWS V14.01,2013-01-17 09:00:00,
2013-01-17 03:02:00,23.5,15.2,30.21,SW,229,0.0,0.0,70,0.00,,OVC004,0.00,VWS V14.01,2013-01-17 09:02:00,
2013-01-17 03:04:00,23.4,15.0,30.21,SW,229,0.0,0.0,70,0.00,,CLR,0.00,VWS V14.01,2013-01-17 09:04:00,
2013-01-17 03:06:00,23.4,15.4,30.21,SW,229,0.0,0.0,71,0.00,,OVC004,0.00,VWS V14.01,2013-01-17 09:06:00,
2013-01-17 03:08:00,23.4,15.4,30.21,SW,229,0.0,0.0,71,0.00,,OVC004,0.00,VWS V14.01,2013-01-17 09:08:00,
2013-01-17 03:09:00,23.4,15.4,30.21,SW,229,0.0,0.0,71,0.00,,CLR,0.00,VWS V14.01,2013-01-17 09:09:00,
2013-01-17 03:10:00,23.4,15.4,30.21,SW,229,0.0,0.0,71,0.00,,OVC004,0.00,VWS V14.01,2013-01-17 09:10:00,
2013-01-17 03:12:00,23.4,15.4,30.21,SW,229,0.0,0.0,71,0.00,,OVC004,0.00,VWS V14.01,2013-01-17 09:12:00,
2013-01-17 03:14:00,23.5,15.6,30.21,SW,229,0.0,0.0,71,0.00,,OVC004,0.00,VWS V14.01,2013-01-17 09:14:00,
2013-01-17 03:15:00,23.5,15.6,30.21,SW,229,0.0,0.0,71,0.00,,CLR,0.00,VWS V14.01,2013-01-17 09:15:00,
2013-01-17 03:16:00,23.5,15.6,30.21,SW,229,0.0,0.0,71,0.00,,OVC004,0.00,VWS V14.01,2013-01-17 09:16:00,
2013-01-17 03:18:00,23.5,15.6,30.21,SW,229,0.0,0.0,71,0.00,,OVC004,0.00,VWS V14.01,2013-01-17 09:18:00,
2013-01-17 03:20:00,23.5,15.6,30.21,SW,229,0.0,0.0,71,0.00,,CLR,0.00,VWS V14.01,2013-01-17 09:20:00,
2013-01-17 03:22:00,23.5,15.6,30.21,SW,229,0.0,0.0,71,0.00,,OVC004,0.00,VWS V14.01,2013-01-17 09:22:00,
2013-01-17 03:24:00,23.5,15.6,30.21,SW,229,0.0,0.0,71,0.00,,OVC004,0.00,VWS V14.01,2013-01-17 09:24:00,
2013-01-17 03:25:00,23.4,15.4,30.21,SW,229,0.0,0.0,71,0.00,,CLR,0.00,VWS V14.01,2013-01-17 09:25:00,
2013-01-17 03:26:00,23.4,15.4,30.21,SW,229,0.0,0.0,71,0.00,,OVC004,0.00,VWS V14.01,2013-01-17 09:26:00,
2013-01-17 03:28:00,23.5,16.0,30.21,SW,229,0.0,0.0,73,0.00,,OVC004,0.00,VWS V14.01,2013-01-17 09:28:00,
2013-01-17 03:30:00,23.5,16.0,30.21,SW,229,0.0,0.0,73,0.00,,CLR,0.00,VWS V14.01,2013-01-17 09:30:00,
2013-01-17 03:32:00,23.5,16.0,30.21,SW,229,0.0,0.0,73,0.00,,OVC004,0.00,VWS V14.01,2013-01-17 09:32:00,
2013-01-17 03:34:00,23.5,16.0,30.21,SW,229,0.0,0.0,73,0.00,,OVC004,0.00,VWS V14.01,2013-01-17 09:34:00,
2013-01-17 03:35:00,23.5,16.0,30.21,SW,229,0.0,0.0,73,0.00,,CLR,0.00,VWS V14.01,2013-01-17 09:35:00,
2013-01-17 03:36:00,23.4,15.9,30.21,SW,229,0.0,0.0,73,0.00,,OVC004,0.00,VWS V14.01,2013-01-17 09:36:00,
2013-01-17 03:38:00,23.4,15.9,30.21,SW,229,0.0,0.0,73,0.00,,OVC004,0.00,VWS V14.01,2013-01-17 09:38:00,
2013-01-17 03:40:00,23.2,15.7,30.21,SW,229,0.0,0.0,73,0.00,,CLR,0.00,VWS V14.01,2013-01-17 09:40:00,
2013-01-17 03:42:00,23.2,15.7,30.21,SW,229,0.0,0.0,73,0.00,,OVC004,0.00,VWS V14.01,2013-01-17 09:42:00,
2013-01-17 03:44:00,23.2,15.7,30.21,SW,229,0.0,0.0,73,0.00,,OVC004,0.00,VWS V14.01,2013-01-17 09:44:00,
2013-01-17 03:45:00,23.4,15.9,30.21,SW,229,0.0,0.0,73,0.00,,CLR,0.00,VWS V14.01,2013-01-17 09:45:00,
2013-01-17 03:46:00,23.4,15.9,30.21,SW,229,0.0,0.0,73,0.00,,OVC004,0.00,VWS V14.01,2013-01-17 09:46:00,
2013-01-17 03:48:00,23.5,16.0,30.21,SW,229,0.0,0.0,73,0.00,,OVC004,0.00,VWS V14.01,2013-01-17 09:48:00,
2013-01-17 03:50:00,23.5,16.0,30.21,SW,229,0.0,0.0,73,0.00,,CLR,0.00,VWS V14.01,2013-01-17 09:50:00,
2013-01-17 03:52:00,23.7,16.6,30.21,SW,229,0.0,0.0,74,0.00,,OVC004,0.00,VWS V14.01,2013-01-17 09:52:00,
2013-01-17 03:54:00,23.9,16.8,30.21,SW,229,0.0,0.0,74,0.00,,OVC004,0.00,VWS V14.01,2013-01-17 09:54:00,
2013-01-17 03:55:00,24.1,17.0,30.21,SW,229,0.0,0.0,74,0.00,,CLR,0.00,VWS V14.01,2013-01-17 09:55:00,
2013-01-17 03:56:00,24.1,17.0,30.21,SW,229,0.0,0.0,74,0.00,,OVC004,0.00,VWS V14.01,2013-01-17 09:56:00,
2013-01-17 03:58:00,24.3,17.2,30.21,West,273,4.4,5.2,74,0.00,,OVC004,0.00,VWS V14.01,2013-01-17 09:58:00,
2013-01-17 04:00:00,24.4,17.3,30.21,WNW,283,2.8,5.2,74,0.00,,CLR,0.00,VWS V14.01,2013-01-17 10:00:00,
2013-01-17 04:02:00,24.6,17.5,30.21,WNW,287,2.8,4.1,74,0.00,,OVC004,0.00,VWS V14.01,2013-01-17 10:02:00,
2013-01-17 04:04:00,25.0,17.9,30.21,WSW,254,3.9,4.1,74,0.00,,OVC004,0.00,VWS V14.01,2013-01-17 10:04:00,
2013-01-17 04:05:00,25.3,18.6,30.21,West,267,4.4,6.4,75,0.00,,CLR,0.00,VWS V14.01,2013-01-17 10:05:00,
2013-01-17 04:06:00,25.3,18.6,30.21,West,267,3.9,6.4,75,0.00,,OVC004,0.00,VWS V14.01,2013-01-17 10:06:00,
2013-01-17 04:08:00,25.9,19.1,30.21,WNW,296,0.0,4.7,75,0.00,,OVC004,0.00,VWS V14.01,2013-01-17 10:08:00,
2013-01-17 04:10:00,26.1,19.3,30.21,WNW,296,2.8,2.9,75,0.00,,CLR,0.00,VWS V14.01,2013-01-17 10:10:00,
2013-01-17 04:12:00,26.1,19.3,30.21,WNW,296,0.0,4.1,75,0.00,,OVC004,0.00,VWS V14.01,2013-01-17 10:12:00,
2013-01-17 04:14:00,26.2,19.1,30.21,WNW,293,3.9,4.7,74,0.00,,OVC004,0.00,VWS V14.01,2013-01-17 10:14:00,
2013-01-17 04:15:00,26.2,19.1,30.21,WNW,293,3.9,4.1,74,0.00,,CLR,0.00,VWS V14.01,2013-01-17 10:15:00,
2013-01-17 04:16:00,26.2,19.1,30.21,NW,305,5.0,5.2,74,0.00,,OVC004,0.00,VWS V14.01,2013-01-17 10:16:00,
2013-01-17 04:18:00,26.4,19.7,30.21,WNW,286,3.9,6.4,75,0.00,,OVC004,0.00,VWS V14.01,2013-01-17 10:18:00,
2013-01-17 04:20:00,26.6,19.8,30.21,West,280,3.3,7.6,75,0.00,,CLR,0.00,VWS V14.01,2013-01-17 10:20:00,
2013-01-17 04:22:00,26.8,19.6,30.21,West,281,0.0,4.7,74,0.00,,OVC004,0.00,VWS V14.01,2013-01-17 10:22:00,
2013-01-17 04:24:00,27.0,19.8,30.24,West,281,0.0,0.0,74,0.00,,OVC004,0.00,VWS V14.01,2013-01-17 10:24:00,
2013-01-17 04:25:00,27.0,19.8,30.24,West,281,0.0,0.0,74,0.00,,CLR,0.00,VWS V14.01,2013-01-17 10:25:00,
2013-01-17 04:26:00,27.1,19.9,30.24,WNW,282,2.8,4.7,74,0.00,,OVC004,0.00,VWS V14.01,2013-01-17 10:26:00,
2013-01-17 04:28:00,27.1,19.9,30.24,WNW,296,0.0,5.2,74,0.00,,OVC004,0.00,VWS V14.01,2013-01-17 10:28:00,
2013-01-17 04:30:00,27.3,20.1,30.24,WNW,296,0.0,0.0,74,0.00,,CLR,0.00,VWS V14.01,2013-01-17 10:30:00,
2013-01-17 04:32:00,27.3,20.1,30.24,WNW,296,0.0,0.0,74,0.00,,OVC004,0.00,VWS V14.01,2013-01-17 10:32:00,
2013-01-17 04:34:00,27.1,19.9,30.24,WNW,297,0.0,0.0,74,0.00,,OVC004,0.00,VWS V14.01,2013-01-17 10:34:00,
2013-01-17 04:35:00,27.1,19.9,30.24,WNW,298,0.0,0.0,74,0.00,,CLR,0.00,VWS V14.01,2013-01-17 10:35:00,
2013-01-17 04:36:00,27.1,19.9,30.24,WNW,298,0.0,0.0,74,0.00,,OVC004,0.00,VWS V14.01,2013-01-17 10:36:00,
2013-01-17 04:38:00,27.0,19.4,30.24,NW,304,3.9,4.1,73,0.00,,OVC004,0.00,VWS V14.01,2013-01-17 10:38:00,
2013-01-17 04:40:00,27.0,19.4,30.24,WNW,303,0.0,4.1,73,0.00,,OVC004,0.00,VWS V14.01,2013-01-17 10:40:00,
2013-01-17 04:41:00,26.8,19.2,30.24,WNW,298,0.0,4.1,73,0.00,,CLR,0.00,VWS V14.01,2013-01-17 10:41:00,
2013-01-17 04:42:00,26.8,19.2,30.24,WNW,295,3.9,4.1,73,0.00,,OVC004,0.00,VWS V14.01,2013-01-17 10:42:00,
2013-01-17 04:44:00,26.6,19.0,30.24,WNW,290,3.3,6.4,73,0.00,,OVC004,0.00,VWS V14.01,2013-01-17 10:44:00,
2013-01-17 04:46:00,26.6,19.0,30.24,WNW,299,0.0,4.7,73,0.00,,CLR,0.00,VWS V14.01,2013-01-17 10:46:00,
2013-01-17 04:48:00,26.6,19.0,30.24,WNW,299,3.9,4.1,73,0.00,,OVC004,0.00,VWS V14.01,2013-01-17 10:48:00,
2013-01-17 04:50:00,26.6,19.0,30.24,WNW,297,3.3,5.2,73,0.00,,OVC004,0.00,VWS V14.01,2013-01-17 10:50:00,
2013-01-17 04:51:00,26.6,19.0,30.24,WNW,297,2.8,4.1,73,0.00,,CLR,0.00,VWS V14.01,2013-01-17 10:51:00,
2013-01-17 04:52:00,26.6,19.0,30.24,WNW,297,3.3,4.1,73,0.00,,OVC004,0.00,VWS V14.01,2013-01-17 10:52:00,
2013-01-17 04:54:00,26.8,19.2,30.24,WNW,297,0.0,3.5,73,0.00,,OVC004,0.00,VWS V14.01,2013-01-17 10:54:00,
2013-01-17 04:56:00,26.8,19.2,30.24,West,279,3.3,3.5,73,0.00,,CLR,0.00,VWS V14.01,2013-01-17 10:56:00,
2013-01-17 04:58:00,27.0,19.4,30.24,West,280,0.0,4.7,73,0.00,,OVC004,0.00,VWS V14.01,2013-01-17 10:58:00,
2013-01-17 05:00:00,27.0,19.4,30.24,West,280,0.0,0.0,73,0.00,,OVC004,0.00,VWS V14.01,2013-01-17 11:00:00,
2013-01-17 05:01:00,27.0,19.4,30.24,West,281,0.0,0.0,73,0.00,,CLR,0.00,VWS V14.01,2013-01-17 11:01:00,
2013-01-17 05:02:00,27.0,19.4,30.24,West,280,0.0,0.0,73,0.00,,OVC004,0.00,VWS V14.01,2013-01-17 11:02:00,
2013-01-17 05:04:00,26.8,18.8,30.24,West,281,0.0,0.0,71,0.00,,OVC004,0.00,VWS V14.01,2013-01-17 11:04:00,
2013-01-17 05:06:00,26.8,18.7,30.24,WNW,282,0.0,0.0,71,0.00,,CLR,0.00,VWS V14.01,2013-01-17 11:06:00,
2013-01-17 05:08:00,26.8,18.8,30.24,WNW,286,0.0,0.0,71,0.00,,OVC004,0.00,VWS V14.01,2013-01-17 11:08:00,
2013-01-17 05:10:00,26.8,18.8,30.24,WNW,286,0.0,0.0,71,0.00,,OVC004,0.00,VWS V14.01,2013-01-17 11:10:00,
2013-01-17 05:11:00,27.0,18.9,30.24,WNW,286,0.0,0.0,71,0.00,,CLR,0.00,VWS V14.01,2013-01-17 11:11:00,
2013-01-17 05:12:00,27.0,18.9,30.24,WNW,286,0.0,0.0,71,0.00,,OVC004,0.00,VWS V14.01,2013-01-17 11:12:00,
2013-01-17 05:14:00,27.0,18.9,30.24,WNW,286,0.0,0.0,71,0.00,,OVC004,0.00,VWS V14.01,2013-01-17 11:14:00,
2013-01-17 05:16:00,27.0,18.9,30.24,WNW,286,0.0,0.0,71,0.00,,CLR,0.00,VWS V14.01,2013-01-17 11:16:00,
2013-01-17 05:18:00,27.0,18.9,30.24,WNW,286,0.0,0.0,71,0.00,,OVC004,0.00,VWS V14.01,2013-01-17 11:18:00,
2013-01-17 05:20:00,27.1,19.1,30.24,WNW,293,0.0,0.0,71,0.00,,OVC004,0.00,VWS V14.01,2013-01-17 11:20:00,
2013-01-17 05:21:00,27.3,19.3,30.24,NW,312,0.0,0.0,71,0.00,,CLR,0.00,VWS V14.01,2013-01-17 11:21:00,
2013-01-17 05:22:00,27.5,19.4,30.24,NW,312,0.0,0.0,71,0.00,,OVC004,0.00,VWS V14.01,2013-01-17 11:22:00,
2013-01-17 05:24:00,27.7,19.6,30.24,NW,312,0.0,0.0,71,0.00,,OVC004,0.00,VWS V14.01,2013-01-17 11:24:00,
2013-01-17 05:26:00,27.9,19.8,30.24,WNW,285,0.0,0.0,71,0.00,,CLR,0.00,VWS V14.01,2013-01-17 11:26:00,
2013-01-17 05:28:00,28.2,20.1,30.24,WNW,295,0.0,0.0,71,0.00,,OVC004,0.00,VWS V14.01,2013-01-17 11:28:00,
2013-01-17 05:30:00,28.4,20.3,30.24,NW,314,2.8,4.1,71,0.00,,OVC004,0.00,VWS V14.01,2013-01-17 11:30:00,
2013-01-17 05:31:00,28.6,20.5,30.24,NW,314,0.0,4.1,71,0.00,,CLR,0.00,VWS V14.01,2013-01-17 11:31:00,
2013-01-17 05:32:00,28.8,20.6,30.24,NW,314,0.0,2.9,71,0.00,,OVC004,0.00,VWS V14.01,2013-01-17 11:32:00,
2013-01-17 05:34:00,28.9,20.8,30.24,NW,314,0.0,0.0,71,0.00,,OVC004,0.00,VWS V14.01,2013-01-17 11:34:00,
2013-01-17 05:36:00,29.1,21.0,30.24,NW,306,0.0,4.1,71,0.00,,CLR,0.00,VWS V14.01,2013-01-17 11:36:00,
2013-01-17 05:38:00,29.3,21.2,30.24,NW,325,2.8,4.7,71,0.00,,OVC004,0.00,VWS V14.01,2013-01-17 11:38:00,
2013-01-17 05:40:00,29.5,21.3,30.27,WNW,299,5.0,5.2,71,0.00,,OVC004,0.00,VWS V14.01,2013-01-17 11:40:00,
2013-01-17 05:41:00,29.5,21.3,30.27,NW,304,0.0,6.4,71,0.00,,CLR,0.00,VWS V14.01,2013-01-17 11:41:00,
2013-01-17 05:42:00,29.5,21.3,30.27,NW,304,0.0,6.4,71,0.00,,OVC004,0.00,VWS V14.01,2013-01-17 11:42:00,
2013-01-17 05:44:00,29.7,21.5,30.27,WNW,293,3.3,4.1,71,0.00,,OVC004,0.00,VWS V14.01,2013-01-17 11:44:00,
2013-01-17 05:46:00,29.8,21.7,30.27,WNW,293,0.0,2.9,71,0.00,,CLR,0.00,VWS V14.01,2013-01-17 11:46:00,
2013-01-17 05:48:00,30.0,21.4,30.27,North,7,0.0,4.1,70,0.00,,OVC004,0.00,VWS V14.01,2013-01-17 11:48:00,
2013-01-17 05:50:00,30.0,21.4,30.27,North,357,2.8,2.9,70,0.00,,OVC004,0.00,VWS V14.01,2013-01-17 11:50:00,
2013-01-17 05:51:00,30.0,21.4,30.27,North,349,2.8,2.9,70,0.00,,CLR,0.00,VWS V14.01,2013-01-17 11:51:00,
2013-01-17 05:52:00,30.0,21.4,30.27,NW,317,2.8,4.7,70,0.00,,OVC004,0.00,VWS V14.01,2013-01-17 11:52:00,
2013-01-17 05:54:00,29.8,21.2,30.27,NNW,332,0.0,2.9,70,0.00,,OVC004,0.00,VWS V14.01,2013-01-17 11:54:00,
2013-01-17 05:56:00,29.8,21.2,30.27,NNW,332,0.0,0.0,70,0.00,,CLR,0.00,VWS V14.01,2013-01-17 11:56:00,
2013-01-17 05:58:00,29.7,21.1,30.27,NNW,341,0.0,0.0,70,0.00,,OVC004,0.00,VWS V14.01,2013-01-17 11:58:00,
2013-01-17 06:00:00,29.5,20.9,30.27,NNW,340,0.0,5.2,70,0.00,,OVC004,0.00,VWS V14.01,2013-01-17 12:00:00,
2013-01-17 06:01:00,29.5,20.9,30.27,NNW,329,2.8,4.1,70,0.00,,CLR,0.00,VWS V14.01,2013-01-17 12:01:00,
2013-01-17 06:02:00,29.5,20.9,30.27,NNW,329,0.0,4.1,70,0.00,,OVC004,0.00,VWS V14.01,2013-01-17 12:02:00,
2013-01-17 06:04:00,29.3,20.7,30.27,NNW,332,0.0,0.0,70,0.00,,OVC004,0.00,VWS V14.01,2013-01-17 12:04:00,
2013-01-17 06:06:00,29.1,20.6,30.27,WNW,301,2.8,2.9,70,0.00,,CLR,0.00,VWS V14.01,2013-01-17 12:06:00,
2013-01-17 06:08:00,28.9,20.4,30.27,North,2,2.8,4.1,70,0.00,,OVC004,0.00,VWS V14.01,2013-01-17 12:08:00,
2013-01-17 06:10:00,28.9,19.9,30.27,NNW,345,3.9,4.7,69,0.00,,OVC004,0.00,VWS V14.01,2013-01-17 12:10:00,
2013-01-17 06:11:00,28.8,19.8,30.27,NNE,24,4.4,4.7,69,0.00,,CLR,0.00,VWS V14.01,2013-01-17 12:11:00,
2013-01-17 06:12:00,28.8,19.8,30.27,North,0,2.8,4.7,69,0.00,,OVC004,0.00,VWS V14.01,2013-01-17 12:12:00,
2013-01-17 06:14:00,28.8,20.2,30.27,NNE,17,3.3,5.2,70,0.00,,OVC004,0.00,VWS V14.01,2013-01-17 12:14:00,
2013-01-17 06:16:00,28.8,20.2,30.27,NNW,346,3.3,5.2,70,0.00,,CLR,0.00,VWS V14.01,2013-01-17 12:16:00,
2013-01-17 06:20:00,28.8,20.2,30.27,North,353,6.7,7.0,70,0.00,,OVC004,0.00,VWS V14.01,2013-01-17 12:20:00,
2013-01-17 06:21:00,28.8,20.2,30.27,North,7,3.9,7.0,70,0.00,,CLR,0.00,VWS V14.01,2013-01-17 12:21:00,
2013-01-17 06:22:00,28.8,20.2,30.27,NNW,333,3.9,7.0,70,0.00,,OVC004,0.00,VWS V14.01,2013-01-17 12:22:00,
2013-01-17 06:24:00,28.8,20.2,30.27,NW,311,3.3,6.4,70,0.00,,OVC004,0.00,VWS V14.01,2013-01-17 12:24:00,
2013-01-17 06:26:00,28.9,20.4,30.27,NNW,327,3.9,5.2,70,0.00,,CLR,0.00,VWS V14.01,2013-01-17 12:26:00,
2013-01-17 06:28:00,28.9,20.4,30.27,NNW,333,0.0,5.2,70,0.00,,OVC004,0.00,VWS V14.01,2013-01-17 12:28:00,
2013-01-17 06:30:00,28.8,20.2,30.27,North,6,3.9,4.7,70,0.00,,OVC004,0.00,VWS V14.01,2013-01-17 12:30:00,
2013-01-17 06:31:00,28.9,20.4,30.27,North,2,5.0,5.2,70,0.00,,CLR,0.00,VWS V14.01,2013-01-17 12:31:00,
2013-01-17 06:32:00,28.9,20.4,30.27,NNW,328,3.3,5.2,70,0.00,,OVC004,0.00,VWS V14.01,2013-01-17 12:32:00,
2013-01-17 06:34:00,28.9,20.4,30.27,NNW,334,0.0,6.4,70,0.00,,OVC004,0.00,VWS V14.01,2013-01-17 12:34:00,
2013-01-17 06:36:00,28.8,20.2,30.27,North,357,3.3,4.7,70,0.00,,CLR,0.00,VWS V14.01,2013-01-17 12:36:00,
2013-01-17 06:38:00,28.8,20.2,30.27,North,353,3.3,4.7,70,0.00,,OVC004,0.00,VWS V14.01,2013-01-17 12:38:00,
2013-01-17 06:40:00,28.9,20.4,30.27,NE,39,3.3,6.4,70,0.00,,OVC004,0.00,VWS V14.01,2013-01-17 12:40:00,
2013-01-17 06:41:00,28.9,20.4,30.27,NNE,18,0.0,6.4,70,0.00,,CLR,0.00,VWS V14.01,2013-01-17 12:41:00,
2013-01-17 06:42:00,28.9,20.4,30.27,NNE,14,3.3,6.4,70,0.00,,OVC004,0.00,VWS V14.01,2013-01-17 12:42:00,
2013-01-17 06:44:00,28.9,20.4,30.27,North,357,3.9,5.8,70,0.00,,OVC004,0.00,VWS V14.01,2013-01-17 12:44:00,
2013-01-17 06:46:00,29.1,21.0,30.27,NNE,16,3.9,7.0,71,0.00,,OVC004,0.00,VWS V14.01,2013-01-17 12:46:00,
2013-01-17 06:47:00,29.1,21.0,30.27,NE,34,4.4,6.4,71,0.00,,CLR,0.00,VWS V14.01,2013-01-17 12:47:00,
2013-01-17 06:48:00,29.1,21.0,30.27,North,11,3.9,5.2,71,0.00,,OVC004,0.00,VWS V14.01,2013-01-17 12:48:00,
2013-01-17 06:50:00,29.3,21.2,30.27,NNE,20,5.0,6.4,71,0.00,,OVC004,0.00,VWS V14.01,2013-01-17 12:50:00,
2013-01-17 06:52:00,29.3,21.2,30.27,NNE,22,3.9,6.4,71,0.00,,CLR,0.00,VWS V14.01,2013-01-17 12:52:00,
2013-01-17 06:54:00,29.3,21.2,30.30,NNE,17,3.9,5.2,71,0.00,,OVC004,0.00,VWS V14.01,2013-01-17 12:54:00,
2013-01-17 06:56:00,29.3,21.2,30.30,NNE,16,0.0,6.4,71,0.00,,OVC004,0.00,VWS V14.01,2013-01-17 12:56:00,
2013-01-17 06:57:00,29.1,21.0,30.30,NNE,32,0.0,4.7,71,0.00,,CLR,0.00,VWS V14.01,2013-01-17 12:57:00,
2013-01-17 06:58:00,29.1,21.0,30.30,NNE,22,3.9,4.1,71,0.00,,OVC004,0.00,VWS V14.01,2013-01-17 12:58:00,
2013-01-17 07:00:00,29.1,21.0,30.30,North,5,2.8,4.7,71,0.00,,OVC004,0.00,VWS V14.01,2013-01-17 13:00:00,
2013-01-17 07:02:00,29.1,21.0,30.30,North,357,3.9,7.0,71,0.00,,CLR,0.00,VWS V14.01,2013-01-17 13:02:00,
2013-01-17 07:04:00,28.9,20.8,30.30,NNE,18,6.1,7.6,71,0.00,,OVC004,0.00,VWS V14.01,2013-01-17 13:04:00,
2013-01-17 07:06:00,28.9,20.8,30.30,NNE,24,2.8,6.4,71,0.00,,OVC004,0.00,VWS V14.01,2013-01-17 13:06:00,
2013-01-17 07:07:00,28.9,20.8,30.30,NNE,13,4.4,5.2,71,0.00,,CLR,0.00,VWS V14.01,2013-01-17 13:07:00,
2013-01-17 07:08:00,28.9,21.3,30.30,NNE,27,4.4,5.2,73,0.00,,OVC004,0.00,VWS V14.01,2013-01-17 13:08:00,
2013-01-17 07:10:00,28.9,21.3,30.30,NNW,341,5.0,5.2,73,0.00,,OVC004,0.00,VWS V14.01,2013-01-17 13:10:00,
2013-01-17 07:12:00,28.9,21.3,30.30,NNE,23,4.4,5.2,73,0.00,,CLR,0.00,VWS V14.01,2013-01-17 13:12:00,
2013-01-17 07:14:00,28.9,21.3,30.30,North,5,3.9,6.4,73,0.00,,OVC004,0.00,VWS V14.01,2013-01-17 13:14:00,
2013-01-17 07:16:00,28.9,21.3,30.30,North,6,3.3,5.2,73,0.00,,OVC004,0.00,VWS V14.01,2013-01-17 13:16:00,
2013-01-17 07:17:00,28.9,21.3,30.30,North,0,3.3,5.2,73,0.00,,CLR,0.00,VWS V14.01,2013-01-17 13:17:00,
2013-01-17 07:18:00,28.9,21.3,30.30,North,353,3.9,5.2,73,0.00,,OVC004,0.00,VWS V14.01,2013-01-17 13:18:00,
2013-01-17 07:20:00,28.8,21.1,30.30,NNW,344,5.0,6.4,73,0.00,,OVC004,0.00,VWS V14.01,2013-01-17 13:20:00,
2013-01-17 07:22:00,28.8,21.1,30.30,North,357,3.9,7.0,73,0.00,,CLR,0.00,VWS V14.01,2013-01-17 13:22:00,
2013-01-17 07:24:00,28.6,20.9,30.30,NNE,20,3.3,6.4,73,0.00,,OVC004,0.00,VWS V14.01,2013-01-17 13:24:00,
2013-01-17 07:26:00,28.6,20.9,30.30,NNW,327,5.0,5.2,73,0.00,,OVC004,0.00,VWS V14.01,2013-01-17 13:26:00,
2013-01-17 07:27:00,28.6,20.9,30.30,North,357,4.4,6.4,73,0.00,,CLR,0.00,VWS V14.01,2013-01-17 13:27:00,
2013-01-17 07:28:00,28.6,20.9,30.30,NNE,32,3.9,7.0,73,0.00,,OVC004,0.00,VWS V14.01,2013-01-17 13:28:00,
2013-01-17 07:30:00,28.6,20.9,30.30,NE,37,3.3,7.6,73,0.00,,OVC004,0.00,VWS V14.01,2013-01-17 13:30:00,
2013-01-17 07:32:00,28.6,20.9,30.30,NNE,30,3.9,7.0,73,0.00,,CLR,0.00,VWS V14.01,2013-01-17 13:32:00,
2013-01-17 07:34:00,28.6,20.9,30.30,North,357,3.9,6.4,73,0.00,,OVC004,0.00,VWS V14.01,2013-01-17 13:34:00,
2013-01-17 07:36:00,28.6,21.3,30.30,NNE,15,4.4,7.0,74,0.00,,OVC004,0.00,VWS V14.01,2013-01-17 13:36:00,
2013-01-17 07:37:00,28.6,21.3,30.30,North,3,6.1,7.0,74,0.00,,CLR,0.00,VWS V14.01,2013-01-17 13:37:00,
2013-01-17 07:38:00,28.6,21.3,30.30,NNE,19,4.4,6.4,74,0.00,,OVC004,0.00,VWS V14.01,2013-01-17 13:38:00,
2013-01-17 07:40:00,28.6,21.3,30.30,North,2,6.1,7.6,74,0.00,,OVC004,0.00,VWS V14.01,2013-01-17 13:40:00,
2013-01-17 07:42:00,28.6,21.3,30.30,North,0,5.0,7.0,74,0.00,,CLR,0.00,VWS V14.01,2013-01-17 13:42:00,
2013-01-17 07:44:00,28.6,21.3,30.30,NNW,328,2.8,7.6,74,0.00,,OVC004,0.00,VWS V14.01,2013-01-17 13:44:00,
2013-01-17 07:46:00,28.6,21.3,30.30,NNE,16,6.7,7.0,74,0.00,,OVC004,0.00,VWS V14.01,2013-01-17 13:46:00,
2013-01-17 07:47:00,28.6,21.3,30.30,NNW,337,4.4,7.0,74,0.00,,CLR,0.00,VWS V14.01,2013-01-17 13:47:00,
2013-01-17 07:48:00,28.8,21.5,30.30,NNE,32,3.3,7.0,74,0.00,,OVC004,0.00,VWS V14.01,2013-01-17 13:48:00,
2013-01-17 07:50:00,28.8,21.5,30.30,North,3,6.7,7.0,74,0.00,,OVC004,0.00,VWS V14.01,2013-01-17 13:50:00,
2013-01-17 07:52:00,28.8,21.9,30.30,NNE,16,3.3,7.0,75,0.00,,CLR,0.00,VWS V14.01,2013-01-17 13:52:00,
2013-01-17 07:54:00,28.9,22.1,30.33,North,6,4.4,4.7,75,0.00,,OVC004,0.00,VWS V14.01,2013-01-17 13:54:00,
2013-01-17 07:56:00,28.9,22.1,30.33,NNE,21,7.8,8.1,75,0.00,,OVC004,0.00,VWS V14.01,2013-01-17 13:56:00,
2013-01-17 07:57:00,29.1,22.3,30.33,North,6,4.4,8.1,75,0.00,,CLR,0.00,VWS V14.01,2013-01-17 13:57:00,
2013-01-17 07:58:00,29.1,22.3,30.33,NNW,344,3.9,8.1,75,0.00,,OVC004,0.00,VWS V14.01,2013-01-17 13:58:00,
2013-01-17 08:00:00,29.3,22.5,30.33,North,9,6.1,6.4,75,0.00,,OVC004,0.00,VWS V14.01,2013-01-17 14:00:00,
2013-01-17 08:02:00,29.5,23.0,30.33,NE,35,3.9,6.4,77,0.00,,CLR,0.00,VWS V14.01,2013-01-17 14:02:00,
2013-01-17 08:04:00,29.5,23.0,30.33,North,357,3.3,6.4,77,0.00,,OVC004,0.00,VWS V14.01,2013-01-17 14:04:00,
2013-01-17 08:06:00,29.7,23.2,30.33,North,4,2.8,6.4,77,0.00,,OVC004,0.00,VWS V14.01,2013-01-17 14:06:00,
2013-01-17 08:07:00,29.8,23.4,30.33,North,0,0.0,4.7,77,0.00,,CLR,0.00,VWS V14.01,2013-01-17 14:07:00,
2013-01-17 08:08:00,29.8,23.4,30.33,North,357,0.0,4.7,77,0.00,,OVC004,0.00,VWS V14.01,2013-01-17 14:08:00,
2013-01-17 08:10:00,30.0,23.6,30.33,NNE,12,5.0,6.4,77,0.00,,OVC004,0.00,VWS V14.01,2013-01-17 14:10:00,
2013-01-17 08:12:00,30.2,24.1,30.33,NNE,15,3.9,8.1,78,0.00,,CLR,0.00,VWS V14.01,2013-01-17 14:12:00,
2013-01-17 08:14:00,30.4,24.3,30.33,North,7,3.3,7.6,78,0.00,,OVC004,0.00,VWS V14.01,2013-01-17 14:14:00,
2013-01-17 08:16:00,30.6,24.5,30.33,North,357,3.3,7.6,78,0.00,,OVC004,0.00,VWS V14.01,2013-01-17 14:16:00,
2013-01-17 08:17:00,30.7,24.7,30.33,North,357,7.2,7.6,78,0.00,,CLR,0.00,VWS V14.01,2013-01-17 14:17:00,
2013-01-17 08:18:00,30.7,24.7,30.33,North,10,7.8,8.1,78,0.00,,OVC004,0.00,VWS V14.01,2013-01-17 14:18:00,
2013-01-17 08:20:00,30.9,24.8,30.33,North,3,4.4,8.1,78,0.00,,OVC004,0.00,VWS V14.01,2013-01-17 14:20:00,
2013-01-17 08:22:00,31.1,25.4,30.33,North,4,4.4,7.0,79,0.00,,CLR,0.00,VWS V14.01,2013-01-17 14:22:00,
2013-01-17 08:24:00,31.3,25.6,30.33,North,5,2.8,5.2,79,0.00,,OVC004,0.00,VWS V14.01,2013-01-17 14:24:00,
2013-01-17 08:26:00,31.5,25.8,30.33,North,353,10.0,10.5,79,0.00,,OVC004,0.00,VWS V14.01,2013-01-17 14:26:00,
2013-01-17 08:27:00,31.6,26.0,30.33,North,9,7.8,10.5,79,0.00,,CLR,0.00,VWS V14.01,2013-01-17 14:27:00,
2013-01-17 08:28:00,31.6,26.0,30.33,North,5,4.4,10.5,79,0.00,,OVC004,0.00,VWS V14.01,2013-01-17 14:28:00,
2013-01-17 08:30:00,31.6,26.4,30.33,North,353,5.0,5.2,81,0.00,,OVC004,0.00,VWS V14.01,2013-01-17 14:30:00,
2013-01-17 08:32:00,31.8,26.5,30.33,North,8,3.9,10.5,81,0.00,,OVC004,0.00,VWS V14.01,2013-01-17 14:32:00,
2013-01-17 08:33:00,31.8,26.5,30.33,NNE,24,10.0,10.5,81,0.00,,CLR,0.00,VWS V14.01,2013-01-17 14:33:00,
2013-01-17 08:34:00,32.0,26.7,30.33,North,0,6.1,10.5,81,0.00,,OVC004,0.00,VWS V14.01,2013-01-17 14:34:00,
2013-01-17 08:38:00,32.2,27.3,30.33,NE,35,6.1,9.9,82,0.00,,CLR,0.00,VWS V14.01,2013-01-17 14:38:00,
2013-01-17 08:40:00,32.4,27.4,30.36,North,353,6.1,7.0,82,0.00,,OVC004,0.00,VWS V14.01,2013-01-17 14:40:00,
2013-01-17 08:42:00,32.5,27.6,30.36,North,9,4.4,7.0,82,0.00,,OVC004,0.00,VWS V14.01,2013-01-17 14:42:00,
2013-01-17 08:43:00,32.5,27.6,30.36,NE,37,5.0,6.4,82,0.00,,CLR,0.00,VWS V14.01,2013-01-17 14:43:00,
2013-01-17 08:44:00,32.5,27.6,30.36,North,357,7.8,8.1,82,0.00,,OVC004,0.00,VWS V14.01,2013-01-17 14:44:00,
2013-01-17 08:46:00,32.7,27.8,30.36,NE,45,7.2,8.1,82,0.00,,OVC004,0.00,VWS V14.01,2013-01-17 14:46:00,
2013-01-17 08:48:00,32.9,28.0,30.36,North,5,6.7,7.6,82,0.00,,CLR,0.00,VWS V14.01,2013-01-17 14:48:00,
2013-01-17 08:50:00,33.1,28.5,30.36,NE,45,3.9,8.1,83,0.00,,OVC004,0.00,VWS V14.01,2013-01-17 14:50:00,
2013-01-17 08:52:00,33.1,28.5,30.36,NNE,15,5.5,11.3,83,0.00,,OVC004,0.00,VWS V14.01,2013-01-17 14:52:00,
2013-01-17 08:53:00,33.3,28.7,30.36,NNW,333,2.8,11.3,83,0.00,,CLR,0.00,VWS V14.01,2013-01-17 14:53:00,
2013-01-17 08:54:00,33.3,28.7,30.36,NNE,17,3.3,7.0,83,0.00,,OVC004,0.00,VWS V14.01,2013-01-17 14:54:00,
2013-01-17 08:56:00,33.3,28.7,30.36,North,8,0.0,3.5,83,0.00,,OVC004,0.00,VWS V14.01,2013-01-17 14:56:00,
2013-01-17 08:58:00,33.4,28.9,30.36,North,357,5.0,7.0,83,0.00,,CLR,0.00,VWS V14.01,2013-01-17 14:58:00,
2013-01-17 09:00:00,33.4,28.9,30.36,NNE,18,5.0,9.9,83,0.00,,OVC004,0.00,VWS V14.01,2013-01-17 15:00:00,
2013-01-17 09:02:00,33.6,29.1,30.36,North,357,4.4,8.1,83,0.00,,OVC004,0.00,VWS V14.01,2013-01-17 15:02:00,
2013-01-17 09:03:00,33.6,29.1,30.36,NNW,343,0.0,8.1,83,0.00,,CLR,0.00,VWS V14.01,2013-01-17 15:03:00,
2013-01-17 09:04:00,33.6,29.1,30.36,NW,325,4.4,8.1,83,0.00,,OVC004,0.00,VWS V14.01,2013-01-17 15:04:00,
2013-01-17 09:06:00,33.8,29.2,30.36,NNE,25,6.7,8.1,83,0.00,,OVC004,0.00,VWS V14.01,2013-01-17 15:06:00,
2013-01-17 09:08:00,33.8,29.2,30.36,NNE,22,5.0,8.1,83,0.00,,CLR,0.00,VWS V14.01,2013-01-17 15:08:00,
2013-01-17 09:10:00,34.0,29.4,30.36,North,6,5.0,7.6,83,0.00,,OVC004,0.00,VWS V14.01,2013-01-17 15:10:00,
2013-01-17 09:12:00,34.2,29.6,30.36,North,4,2.8,8.1,83,0.00,,OVC004,0.00,VWS V14.01,2013-01-17 15:12:00,
2013-01-17 09:13:00,34.3,29.8,30.36,North,353,5.0,8.1,83,0.00,,CLR,0.00,VWS V14.01,2013-01-17 15:13:00,
2013-01-17 09:14:00,34.5,30.0,30.36,NNE,33,5.5,5.8,83,0.00,,OVC004,0.00,VWS V14.01,2013-01-17 15:14:00,
2013-01-17 09:16:00,34.7,30.1,30.36,NNE,21,4.4,7.6,83,0.00,,OVC004,0.00,VWS V14.01,2013-01-17 15:16:00,
2013-01-17 09:18:00,34.9,30.7,30.36,NE,40,4.4,11.3,84,0.00,,CLR,0.00,VWS V14.01,2013-01-17 15:18:00,
2013-01-17 09:20:00,35.1,30.9,30.36,NW,316,5.0,7.6,84,0.00,,OVC004,0.00,VWS V14.01,2013-01-17 15:20:00,
2013-01-17 09:22:00,35.2,30.6,30.36,NNE,17,5.0,7.0,83,0.00,,OVC004,0.00,VWS V14.01,2013-01-17 15:22:00,
2013-01-17 09:23:00,35.4,30.8,30.36,North,4,3.3,7.0,83,0.00,,CLR,0.00,VWS V14.01,2013-01-17 15:23:00,
2013-01-17 09:24:00,35.4,30.8,30.36,NE,44,4.4,5.2,83,0.00,,OVC004,0.00,VWS V14.01,2013-01-17 15:24:00,
2013-01-17 09:26:00,35.4,30.8,30.36,NNW,348,3.9,8.1,83,0.00,,OVC004,0.00,VWS V14.01,2013-01-17 15:26:00,
2013-01-17 09:28:00,35.6,31.0,30.36,NNW,339,3.9,8.1,83,0.00,,CLR,0.00,VWS V14.01,2013-01-17 15:28:00,
2013-01-17 09:30:00,35.8,31.2,30.36,NNE,17,10.3,11.3,83,0.00,,OVC004,0.00,VWS V14.01,2013-01-17 15:30:00,
2013-01-17 09:32:00,36.0,31.4,30.36,NNE,31,11.9,12.5,83,0.00,,OVC004,0.00,VWS V14.01,2013-01-17 15:32:00,
2013-01-17 09:33:00,36.0,31.4,30.36,NE,37,7.8,13.1,83,0.00,,CLR,0.00,VWS V14.01,2013-01-17 15:33:00,
2013-01-17 09:34:00,36.1,31.5,30.36,NNE,24,5.0,13.1,83,0.00,,OVC004,0.00,VWS V14.01,2013-01-17 15:34:00,
2013-01-17 09:36:00,36.3,31.7,30.36,NNE,31,7.8,8.1,83,0.00,,OVC004,0.00,VWS V14.01,2013-01-17 15:36:00,
2013-01-17 09:38:00,36.7,32.1,30.36,NNE,28,3.3,9.9,83,0.00,,CLR,0.00,VWS V14.01,2013-01-17 15:38:00,
2013-01-17 09:40:00,36.9,32.2,30.36,NNE,18,10.3,10.8,83,0.00,,OVC004,0.00,VWS V14.01,2013-01-17 15:40:00,
2013-01-17 09:42:00,37.0,32.4,30.36,North,4,6.7,10.8,83,0.00,,OVC004,0.00,VWS V14.01,2013-01-17 15:42:00,
2013-01-17 09:43:00,37.2,32.6,30.36,NNE,18,9.4,9.9,83,0.00,,CLR,0.00,VWS V14.01,2013-01-17 15:43:00,
2013-01-17 09:44:00,37.2,32.6,30.36,NNE,18,6.7,10.5,83,0.00,,OVC004,0.00,VWS V14.01,2013-01-17 15:44:00,
2013-01-17 09:46:00,37.6,32.5,30.36,NE,37,8.9,11.3,82,0.00,,OVC004,0.00,VWS V14.01,2013-01-17 15:46:00,
2013-01-17 09:48:00,37.9,32.9,30.36,NNE,22,11.9,15.4,82,0.00,,CLR,0.00,VWS V14.01,2013-01-17 15:48:00,
2013-01-17 09:50:00,37.9,32.5,30.36,North,357,5.0,17.2,81,0.00,,OVC004,0.00,VWS V14.01,2013-01-17 15:50:00,
2013-01-17 09:52:00,38.1,32.7,30.36,NNE,12,10.8,13.7,81,0.00,,OVC004,0.00,VWS V14.01,2013-01-17 15:52:00,
2013-01-17 09:53:00,38.1,32.3,30.36,NE,39,7.8,13.7,79,0.00,,CLR,0.00,VWS V14.01,2013-01-17 15:53:00,
2013-01-17 09:54:00,38.1,32.3,30.39,North,2,7.8,13.7,79,0.00,,OVC004,0.00,VWS V14.01,2013-01-17 15:54:00,
2013-01-17 09:56:00,38.1,31.8,30.39,NNE,31,13.0,13.7,78,0.00,,OVC004,0.00,VWS V14.01,2013-01-17 15:56:00,
2013-01-17 09:58:00,38.1,31.4,30.39,NNE,24,7.2,14.2,77,0.00,,CLR,0.00,VWS V14.01,2013-01-17 15:58:00,
2013-01-17 10:00:00,38.1,31.4,30.39,NE,48,10.0,14.2,77,0.00,,OVC004,0.00,VWS V14.01,2013-01-17 16:00:00,
2013-01-17 10:02:00,38.1,31.4,30.39,NNE,24,9.4,14.2,77,0.00,,OVC004,0.00,VWS V14.01,2013-01-17 16:02:00,
2013-01-17 10:03:00,38.1,31.4,30.39,NNE,29,7.8,17.2,77,0.00,,CLR,0.00,VWS V14.01,2013-01-17 16:03:00,
2013-01-17 10:04:00,38.1,31.4,30.39,NNE,23,10.8,17.2,77,0.00,,OVC004,0.00,VWS V14.01,2013-01-17 16:04:00,
2013-01-17 10:06:00,38.3,31.6,30.39,NE,46,8.3,17.2,77,0.00,,OVC004,0.00,VWS V14.01,2013-01-17 16:06:00,
2013-01-17 10:08:00,38.3,31.2,30.39,NE,42,14.1,17.7,75,0.00,,CLR,0.00,VWS V14.01,2013-01-17 16:08:00,
2013-01-17 10:10:00,38.3,31.2,30.39,NNE,30,10.0,17.7,75,0.00,,OVC004,0.00,VWS V14.01,2013-01-17 16:10:00,
2013-01-17 10:12:00,38.3,31.2,30.39,NNE,32,10.3,17.2,75,0.00,,OVC004,0.00,VWS V14.01,2013-01-17 16:12:00,
2013-01-17 10:13:00,38.3,31.2,30.39,NE,54,10.0,12.5,75,0.00,,CLR,0.00,VWS V14.01,2013-01-17 16:13:00,
2013-01-17 10:14:00,38.3,31.2,30.39,North,3,10.0,12.5,75,0.00,,OVC004,0.00,VWS V14.01,2013-01-17 16:14:00,
2013-01-17 10:16:00,38.5,31.3,30.39,NE,35,10.0,13.7,75,0.00,,OVC004,0.00,VWS V14.01,2013-01-17 16:16:00,
2013-01-17 10:18:00,38.5,31.3,30.39,NNE,23,13.6,14.2,75,0.00,,CLR,0.00,VWS V14.01,2013-01-17 16:18:00,
2013-01-17 10:20:00,38.7,31.5,30.39,ENE,59,10.0,17.2,75,0.00,,OVC004,0.00,VWS V14.01,2013-01-17 16:20:00,
2013-01-17 10:22:00,38.7,31.5,30.39,NNE,27,10.3,12.5,75,0.00,,OVC004,0.00,VWS V14.01,2013-01-17 16:22:00,
2013-01-17 10:23:00,38.7,31.5,30.39,NNE,33,10.8,14.2,75,0.00,,FEW015,0.00,VWS V14.01,2013-01-17 16:23:00,
2013-01-17 10:24:00,38.7,31.5,30.39,NE,36,13.6,14.2,75,0.00,,OVC004,0.00,VWS V14.01,2013-01-17 16:24:00,
2013-01-17 10:26:00,38.7,31.1,30.39,NNE,33,10.8,17.2,74,0.00,,OVC004,0.00,VWS V14.01,2013-01-17 16:26:00,
2013-01-17 10:28:00,38.8,31.7,30.39,North,357,13.6,14.2,75,0.00,,FEW015,0.00,VWS V14.01,2013-01-17 16:28:00,
2013-01-17 10:30:00,38.8,31.7,30.39,NNE,18,5.0,14.2,75,0.00,,OVC004,0.00,VWS V14.01,2013-01-17 16:30:00,
2013-01-17 10:32:00,39.2,32.0,30.39,North,353,13.6,16.6,75,0.00,,OVC004,0.00,VWS V14.01,2013-01-17 16:32:00,
2013-01-17 10:33:00,39.2,31.6,30.39,NNE,29,9.4,14.2,74,0.00,,FEW015,0.00,VWS V14.01,2013-01-17 16:33:00,
2013-01-17 10:34:00,39.2,31.6,30.39,NNE,22,14.1,14.8,74,0.00,,OVC004,0.00,VWS V14.01,2013-01-17 16:34:00,
2013-01-17 10:36:00,39.2,31.6,30.39,NE,38,10.8,14.8,74,0.00,,OVC004,0.00,VWS V14.01,2013-01-17 16:36:00,
2013-01-17 10:38:00,39.2,31.1,30.39,NNE,21,10.8,20.1,73,0.00,,FEW015,0.00,VWS V14.01,2013-01-17 16:38:00,
2013-01-17 10:40:00,39.2,31.1,30.39,NNE,33,15.8,17.2,73,0.00,,OVC004,0.00,VWS V14.01,2013-01-17 16:40:00,
2013-01-17 10:42:00,39.0,31.0,30.39,NE,34,12.5,19.5,73,0.00,,OVC004,0.00,VWS V14.01,2013-01-17 16:42:00,
2013-01-17 10:43:00,39.0,31.0,30.39,NNE,29,14.7,19.5,73,0.00,,SCT015,0.00,VWS V14.01,2013-01-17 16:43:00,
2013-01-17 10:44:00,39.0,31.4,30.39,NNE,20,10.0,15.4,74,0.00,,OVC004,0.00,VWS V14.01,2013-01-17 16:44:00,
2013-01-17 10:46:00,39.0,31.4,30.39,NE,50,10.0,14.2,74,0.00,,OVC004,0.00,VWS V14.01,2013-01-17 16:46:00,
2013-01-17 10:48:00,39.2,31.6,30.39,NNE,26,7.2,10.8,74,0.00,,SCT015,0.00,VWS V14.01,2013-01-17 16:48:00,
2013-01-17 10:50:00,39.2,31.6,30.39,NNE,28,7.8,10.8,74,0.00,,OVC004,0.00,VWS V14.01,2013-01-17 16:50:00,
2013-01-17 10:52:00,39.6,31.9,30.39,NNE,27,6.1,10.8,74,0.00,,OVC004,0.00,VWS V14.01,2013-01-17 16:52:00,
2013-01-17 10:53:00,39.7,32.1,30.39,North,8,12.5,13.1,74,0.00,,SCT015,0.00,VWS V14.01,2013-01-17 16:53:00,
2013-01-17 10:54:00,39.9,32.3,30.39,NNE,20,6.7,13.1,74,0.00,,OVC004,0.00,VWS V14.01,2013-01-17 16:54:00,
2013-01-17 10:56:00,39.9,32.3,30.39,North,1,13.6,16.6,74,0.00,,OVC004,0.00,VWS V14.01,2013-01-17 16:56:00,
2013-01-17 10:58:00,39.9,31.4,30.39,NNE,33,10.0,14.2,71,0.00,,SCT015,0.00,VWS V14.01,2013-01-17 16:58:00,
2013-01-17 11:00:00,39.9,31.4,30.39,NNE,17,9.4,13.1,71,0.00,,OVC004,0.00,VWS V14.01,2013-01-17 17:00:00,
2013-01-17 11:02:00,39.9,31.4,30.39,NNE,16,6.7,15.4,71,0.00,,OVC004,0.00,VWS V14.01,2013-01-17 17:02:00,
2013-01-17 11:03:00,39.9,31.4,30.39,NW,325,6.7,13.7,71,0.00,,SCT015,0.00,VWS V14.01,2013-01-17 17:03:00,
2013-01-17 11:04:00,39.9,31.4,30.39,North,357,7.2,9.9,71,0.00,,OVC004,0.00,VWS V14.01,2013-01-17 17:04:00,
2013-01-17 11:06:00,39.9,31.4,30.39,NE,39,7.8,10.5,71,0.00,,OVC004,0.00,VWS V14.01,2013-01-17 17:06:00,
2013-01-17 11:08:00,40.1,31.6,30.39,NE,38,7.2,9.9,71,0.00,,SCT015,0.00,VWS V14.01,2013-01-17 17:08:00,
2013-01-17 11:10:00,40.3,31.7,30.39,North,7,10.0,10.5,71,0.00,,OVC004,0.00,VWS V14.01,2013-01-17 17:10:00,
2013-01-17 11:12:00,40.5,32.4,30.39,North,357,7.8,11.3,73,0.00,,OVC004,0.00,VWS V14.01,2013-01-17 17:12:00,
2013-01-17 11:14:00,40.6,32.1,30.39,North,353,4.4,8.1,71,0.00,,SCT015,0.00,VWS V14.01,2013-01-17 17:14:00,
2013-01-17 11:16:00,40.6,32.1,30.39,NNE,18,5.0,11.3,71,0.00,,OVC004,0.00,VWS V14.01,2013-01-17 17:16:00,
2013-01-17 11:18:00,40.8,32.3,30.39,NE,48,9.4,11.9,71,0.00,,OVC004,0.00,VWS V14.01,2013-01-17 17:18:00,
2013-01-17 11:19:00,41.0,32.0,30.39,NE,36,7.2,13.1,70,0.00,,SCT015,0.00,VWS V14.01,2013-01-17 17:19:00,
2013-01-17 11:20:00,41.0,32.0,30.39,NE,49,7.2,13.1,70,0.00,,OVC004,0.00,VWS V14.01,2013-01-17 17:20:00,
2013-01-17 11:22:00,41.2,31.7,30.39,NNE,32,9.4,9.9,69,0.00,,OVC004,0.00,VWS V14.01,2013-01-17 17:22:00,
2013-01-17 11:24:00,41.4,32.3,30.39,NNE,17,9.4,9.9,70,0.00,,SCT015,0.00,VWS V14.01,2013-01-17 17:24:00,
2013-01-17 11:26:00,41.9,32.8,30.39,NNE,33,3.9,9.9,70,0.00,,OVC004,0.00,VWS V14.01,2013-01-17 17:26:00,
2013-01-17 11:28:00,42.1,33.0,30.39,ENE,58,6.7,10.8,70,0.00,,OVC004,0.00,VWS V14.01,2013-01-17 17:28:00,
2013-01-17 11:29:00,42.3,32.7,30.39,North,6,6.7,10.5,69,0.00,,SCT015,0.00,VWS V14.01,2013-01-17 17:29:00,
2013-01-17 11:30:00,42.4,32.9,30.39,NE,42,15.3,17.7,69,0.00,,OVC004,0.00,VWS V14.01,2013-01-17 17:30:00,
2013-01-17 11:32:00,42.6,32.6,30.39,NNE,33,7.8,16.0,67,0.00,,OVC004,0.00,VWS V14.01,2013-01-17 17:32:00,
2013-01-17 11:34:00,42.6,32.1,30.39,NNE,19,8.3,17.2,66,0.00,,SCT015,0.00,VWS V14.01,2013-01-17 17:34:00,
2013-01-17 11:36:00,42.6,31.6,30.39,NNE,28,10.0,17.2,65,0.00,,OVC004,0.00,VWS V14.01,2013-01-17 17:36:00,
2013-01-17 11:38:00,42.6,31.1,30.39,NNE,23,6.7,13.1,63,0.00,,OVC004,0.00,VWS V14.01,2013-01-17 17:38:00,
2013-01-17 11:39:00,42.6,31.1,30.39,North,5,9.4,10.8,63,0.00,,SCT015,0.00,VWS V14.01,2013-01-17 17:39:00,
2013-01-17 11:40:00,42.6,31.1,30.39,NNE,24,3.3,10.5,63,0.00,,OVC004,0.00,VWS V14.01,2013-01-17 17:40:00,
2013-01-17 11:42:00,42.6,31.1,30.39,North,8,10.8,12.5,63,0.00,,OVC004,0.00,VWS V14.01,2013-01-17 17:42:00,
2013-01-17 11:44:00,42.8,31.2,30.39,North,350,6.7,13.7,63,0.00,,CLR,0.00,VWS V14.01,2013-01-17 17:44:00,
2013-01-17 11:46:00,42.8,31.2,30.39,NNE,18,7.2,8.1,63,0.00,,OVC004,0.00,VWS V14.01,2013-01-17 17:46:00,
2013-01-17 11:48:00,42.8,31.2,30.39,North,0,6.7,9.9,63,0.00,,OVC004,0.00,VWS V14.01,2013-01-17 17:48:00,
2013-01-17 11:49:00,42.8,31.2,30.39,North,357,7.2,9.9,63,0.00,,CLR,0.00,VWS V14.01,2013-01-17 17:49:00,
2013-01-17 11:50:00,43.0,31.4,30.39,NNE,27,7.2,11.3,63,0.00,,OVC004,0.00,VWS V14.01,2013-01-17 17:50:00,
2013-01-17 11:52:00,43.3,31.2,30.39,NE,39,10.0,13.7,62,0.00,,OVC004,0.00,VWS V14.01,2013-01-17 17:52:00,
2013-01-17 11:54:00,43.5,31.4,30.39,NNE,33,7.2,11.3,62,0.00,,CLR,0.00,VWS V14.01,2013-01-17 17:54:00,
2013-01-17 11:56:00,43.7,30.5,30.39,NE,38,5.0,13.1,59,0.00,,OVC004,0.00,VWS V14.01,2013-01-17 17:56:00,
2013-01-17 11:58:00,43.9,30.1,30.39,NE,40,13.6,14.2,58,0.00,,OVC004,0.00,VWS V14.01,2013-01-17 17:58:00,
2013-01-17 11:59:00,43.9,29.5,30.39,NE,34,9.4,14.8,57,0.00,,CLR,0.00,VWS V14.01,2013-01-17 17:59:00,
2013-01-17 12:00:00,43.9,29.5,30.39,NE,41,7.8,14.8,57,0.00,,OVC004,0.00,VWS V14.01,2013-01-17 18:00:00,
2013-01-17 12:02:00,44.1,29.7,30.39,NE,46,16.4,20.1,57,0.00,,OVC004,0.00,VWS V14.01,2013-01-17 18:02:00,
2013-01-17 12:04:00,44.1,29.1,30.39,NNE,30,10.3,19.5,55,0.00,,FEW023,0.00,VWS V14.01,2013-01-17 18:04:00,
2013-01-17 12:06:00,44.1,29.1,30.39,NNE,31,10.0,19.5,55,0.00,,OVC004,0.00,VWS V14.01,2013-01-17 18:06:00,
2013-01-17 12:08:00,44.2,29.3,30.39,NE,51,17.5,19.5,55,0.00,,OVC004,0.00,VWS V14.01,2013-01-17 18:08:00,
2013-01-17 12:09:00,44.2,28.7,30.39,NNE,21,16.4,19.5,54,0.00,,FEW023,0.00,VWS V14.01,2013-01-17 18:09:00,
2013-01-17 12:10:00,44.2,28.7,30.39,NE,41,7.8,18.9,54,0.00,,OVC004,0.00,VWS V14.01,2013-01-17 18:10:00,
2013-01-17 12:12:00,44.2,28.7,30.39,North,357,10.3,17.2,54,0.00,,OVC004,0.00,VWS V14.01,2013-01-17 18:12:00,
2013-01-17 12:14:00,44.2,28.7,30.39,NNE,32,9.4,10.5,54,0.00,,FEW023,0.00,VWS V14.01,2013-01-17 18:14:00,
2013-01-17 12:16:00,44.4,28.9,30.39,ENE,63,10.3,13.7,54,0.00,,OVC004,0.00,VWS V14.01,2013-01-17 18:16:00,
2013-01-17 12:18:00,44.6,29.0,30.39,ENE,60,9.4,13.1,54,0.00,,OVC004,0.00,VWS V14.01,2013-01-17 18:18:00,
2013-01-17 12:19:00,44.8,29.2,30.39,NNE,18,16.4,17.2,54,0.00,,FEW023,0.00,VWS V14.01,2013-01-17 18:19:00,
2013-01-17 12:20:00,44.8,29.2,30.39,ENE,63,15.3,17.2,54,0.00,,OVC004,0.00,VWS V14.01,2013-01-17 18:20:00,
2013-01-17 12:22:00,45.0,28.8,30.39,NNE,27,7.8,16.0,53,0.00,,OVC004,0.00,VWS V14.01,2013-01-17 18:22:00,
2013-01-17 12:24:00,45.1,29.0,30.39,NNE,21,7.8,14.2,53,0.00,,CLR,0.00,VWS V14.01,2013-01-17 18:24:00,
2013-01-17 12:26:00,45.1,29.0,30.39,NNE,21,6.7,14.2,53,0.00,,OVC004,0.00,VWS V14.01,2013-01-17 18:26:00,
2013-01-17 12:28:00,45.3,29.1,30.39,NNE,16,10.3,16.0,53,0.00,,OVC004,0.00,VWS V14.01,2013-01-17 18:28:00,
2013-01-17 12:29:00,45.3,29.1,30.39,North,353,6.7,16.0,53,0.00,,CLR,0.00,VWS V14.01,2013-01-17 18:29:00,
2013-01-17 12:30:00,45.3,29.1,30.39,North,5,13.0,13.7,53,0.00,,OVC004,0.00,VWS V14.01,2013-01-17 18:30:00,
2013-01-17 12:32:00,45.1,29.0,30.39,NNE,15,10.8,14.2,53,0.00,,OVC004,0.00,VWS V14.01,2013-01-17 18:32:00,
2013-01-17 12:34:00,45.1,29.0,30.39,North,5,7.8,13.1,53,0.00,,CLR,0.00,VWS V14.01,2013-01-17 18:34:00,
2013-01-17 12:36:00,45.1,29.0,30.39,NNE,14,9.4,9.9,53,0.00,,OVC004,0.00,VWS V14.01,2013-01-17 18:36:00,
2013-01-17 12:38:00,45.3,29.1,30.39,NE,38,6.1,11.3,53,0.00,,OVC004,0.00,VWS V14.01,2013-01-17 18:38:00,
2013-01-17 12:39:00,45.3,29.1,30.39,NE,46,9.4,13.1,53,0.00,,CLR,0.00,VWS V14.01,2013-01-17 18:39:00,
2013-01-17 12:40:00,45.3,29.1,30.39,NE,43,10.0,13.1,53,0.00,,OVC004,0.00,VWS V14.01,2013-01-17 18:40:00,
2013-01-17 12:42:00,45.5,29.3,30.39,NNE,31,10.0,10.5,53,0.00,,OVC004,0.00,VWS V14.01,2013-01-17 18:42:00,
2013-01-17 12:44:00,45.7,29.5,30.39,NE,45,0.0,9.9,53,0.00,,CLR,0.00,VWS V14.01,2013-01-17 18:44:00,
2013-01-17 12:46:00,45.9,29.6,30.39,North,9,7.2,8.1,53,0.00,,OVC004,0.00,VWS V14.01,2013-01-17 18:46:00,
2013-01-17 12:48:00,46.2,30.0,30.39,North,350,3.9,8.1,53,0.00,,OVC004,0.00,VWS V14.01,2013-01-17 18:48:00,
2013-01-17 12:49:00,46.4,30.1,30.39,NE,47,9.4,10.5,53,0.00,,CLR,0.00,VWS V14.01,2013-01-17 18:49:00,
2013-01-17 12:50:00,46.6,30.3,30.39,NNW,343,7.2,10.5,53,0.00,,OVC004,0.00,VWS V14.01,2013-01-17 18:50:00,
2013-01-17 12:52:00,46.6,29.7,30.39,NNW,342,7.2,9.9,51,0.00,,OVC004,0.00,VWS V14.01,2013-01-17 18:52:00,
2013-01-17 12:54:00,46.8,29.8,30.39,NNE,12,7.2,13.1,51,0.00,,CLR,0.00,VWS V14.01,2013-01-17 18:54:00,
2013-01-17 12:56:00,46.8,29.2,30.39,NNE,24,7.2,10.5,50,0.00,,OVC004,0.00,VWS V14.01,2013-01-17 18:56:00,
2013-01-17 12:58:00,46.9,29.4,30.39,North,353,7.8,14.2,50,0.00,,OVC004,0.00,VWS V14.01,2013-01-17 18:58:00,
2013-01-17 12:59:00,46.9,29.4,30.39,North,3,7.2,14.2,50,0.00,,CLR,0.00,VWS V14.01,2013-01-17 18:59:00,
2013-01-17 13:00:00,46.9,29.4,30.39,North,350,7.8,13.1,50,0.00,,OVC004,0.00,VWS V14.01,2013-01-17 19:00:00,
2013-01-17 13:02:00,46.9,29.4,30.39,NNE,15,7.8,11.3,50,0.00,,OVC004,0.00,VWS V14.01,2013-01-17 19:02:00,
2013-01-17 13:04:00,46.8,29.2,30.39,North,7,6.7,10.5,50,0.00,,CLR,0.00,VWS V14.01,2013-01-17 19:04:00,
2013-01-17 13:06:00,46.6,29.0,30.39,NNE,25,10.8,11.3,50,0.00,,OVC004,0.00,VWS V14.01,2013-01-17 19:06:00,
2013-01-17 13:08:00,46.6,29.0,30.39,NE,38,10.0,14.8,50,0.00,,OVC004,0.00,VWS V14.01,2013-01-17 19:08:00,
2013-01-17 13:09:00,46.6,29.7,30.39,NNW,346,5.0,13.1,51,0.00,,CLR,0.00,VWS V14.01,2013-01-17 19:09:00,
2013-01-17 13:10:00,46.8,29.8,30.39,NNW,346,0.0,13.1,51,0.00,,OVC004,0.00,VWS V14.01,2013-01-17 19:10:00,
2013-01-17 13:12:00,46.8,29.8,30.39,North,357,8.3,10.8,51,0.00,,OVC004,0.00,VWS V14.01,2013-01-17 19:12:00,
2013-01-17 13:14:00,46.8,29.2,30.39,NE,38,7.8,11.3,50,0.00,,CLR,0.00,VWS V14.01,2013-01-17 19:14:00,
2013-01-17 13:16:00,46.8,29.2,30.39,NNE,30,10.0,11.3,50,0.00,,OVC004,0.00,VWS V14.01,2013-01-17 19:16:00,
2013-01-17 13:18:00,46.8,29.2,30.39,North,0,7.2,14.2,50,0.00,,OVC004,0.00,VWS V14.01,2013-01-17 19:18:00,
2013-01-17 13:19:00,46.8,29.2,30.39,NNE,33,8.3,13.7,50,0.00,,CLR,0.00,VWS V14.01,2013-01-17 19:19:00,
2013-01-17 13:20:00,46.8,29.2,30.39,NNW,345,7.8,13.7,50,0.00,,OVC004,0.00,VWS V14.01,2013-01-17 19:20:00,
2013-01-17 13:22:00,46.9,29.4,30.39,NE,45,7.2,13.7,50,0.00,,OVC004,0.00,VWS V14.01,2013-01-17 19:22:00,
2013-01-17 13:24:00,47.1,29.5,30.39,NNE,22,12.5,16.0,50,0.00,,CLR,0.00,VWS V14.01,2013-01-17 19:24:00,
2013-01-17 13:26:00,47.3,29.7,30.39,NE,44,13.6,16.0,50,0.00,,OVC004,0.00,VWS V14.01,2013-01-17 19:26:00,
2013-01-17 13:28:00,47.3,29.7,30.39,NNE,24,10.3,14.2,50,0.00,,OVC004,0.00,VWS V14.01,2013-01-17 19:28:00,
2013-01-17 13:29:00,47.5,29.9,30.39,North,357,10.3,11.3,50,0.00,,CLR,0.00,VWS V14.01,2013-01-17 19:29:00,
2013-01-17 13:30:00,47.5,29.9,30.39,North,9,10.3,11.3,50,0.00,,OVC004,0.00,VWS V14.01,2013-01-17 19:30:00,
2013-01-17 13:32:00,47.5,29.9,30.39,North,9,6.7,10.8,50,0.00,,OVC004,0.00,VWS V14.01,2013-01-17 19:32:00,
2013-01-17 13:34:00,47.7,29.4,30.39,North,357,7.2,16.0,49,0.00,,CLR,0.00,VWS V14.01,2013-01-17 19:34:00,
2013-01-17 13:36:00,47.7,29.4,30.39,NNE,15,5.0,14.2,49,0.00,,OVC004,0.00,VWS V14.01,2013-01-17 19:36:00,
2013-01-17 13:38:00,47.7,29.4,30.39,NE,39,10.3,14.2,49,0.00,,OVC004,0.00,VWS V14.01,2013-01-17 19:38:00,
2013-01-17 13:40:00,47.7,29.4,30.39,NNE,28,6.7,17.2,49,0.00,,CLR,0.00,VWS V14.01,2013-01-17 19:40:00,
2013-01-17 13:42:00,47.7,29.4,30.39,North,8,12.5,13.1,49,0.00,,OVC004,0.00,VWS V14.01,2013-01-17 19:42:00,
2013-01-17 13:44:00,47.7,29.4,30.39,North,0,6.1,14.2,49,0.00,,OVC004,0.00,VWS V14.01,2013-01-17 19:44:00,
2013-01-17 13:45:00,47.7,29.4,30.39,North,357,12.5,14.2,49,0.00,,CLR,0.00,VWS V14.01,2013-01-17 19:45:00,
2013-01-17 13:46:00,47.7,29.4,30.39,NNW,343,6.7,13.1,49,0.00,,OVC004,0.00,VWS V14.01,2013-01-17 19:46:00,
2013-01-17 13:48:00,47.7,29.4,30.39,NNW,336,7.2,14.2,49,0.00,,OVC004,0.00,VWS V14.01,2013-01-17 19:48:00,
2013-01-17 13:50:00,47.5,29.2,30.39,NNW,340,3.9,14.2,49,0.00,,CLR,0.00,VWS V14.01,2013-01-17 19:50:00,
2013-01-17 13:52:00,47.5,29.2,30.39,NNW,348,9.4,10.8,49,0.00,,OVC004,0.00,VWS V14.01,2013-01-17 19:52:00,
2013-01-17 13:54:00,47.5,29.2,30.39,NNE,25,7.8,11.3,49,0.00,,OVC004,0.00,VWS V14.01,2013-01-17 19:54:00,
2013-01-17 13:55:00,47.5,29.2,30.39,North,7,3.3,10.8,49,0.00,,CLR,0.00,VWS V14.01,2013-01-17 19:55:00,
2013-01-17 13:56:00,47.7,29.4,30.39,NNE,13,4.4,9.9,49,0.00,,OVC004,0.00,VWS V14.01,2013-01-17 19:56:00,
2013-01-17 13:58:00,47.8,29.5,30.39,NNW,340,10.8,11.3,49,0.00,,OVC004,0.00,VWS V14.01,2013-01-17 19:58:00,
2013-01-17 14:00:00,47.8,29.5,30.39,North,6,10.8,16.6,49,0.00,,CLR,0.00,VWS V14.01,2013-01-17 20:00:00,
2013-01-17 14:02:00,48.0,29.7,30.39,North,353,10.8,16.6,49,0.00,,OVC004,0.00,VWS V14.01,2013-01-17 20:02:00,
2013-01-17 14:04:00,48.2,29.2,30.39,NNE,22,6.7,11.3,48,0.00,,OVC004,0.00,VWS V14.01,2013-01-17 20:04:00,
2013-01-17 14:05:00,48.2,29.2,30.39,NNE,23,7.2,10.8,48,0.00,,CLR,0.00,VWS V14.01,2013-01-17 20:05:00,
2013-01-17 14:06:00,48.4,28.7,30.39,North,357,13.6,14.2,46,0.00,,OVC004,0.00,VWS V14.01,2013-01-17 20:06:00,
2013-01-17 14:08:00,48.4,28.7,30.39,NE,46,11.4,14.2,46,0.00,,OVC004,0.00,VWS V14.01,2013-01-17 20:08:00,
2013-01-17 14:10:00,48.4,28.7,30.39,NE,42,12.5,13.1,46,0.00,,CLR,0.00,VWS V14.01,2013-01-17 20:10:00,
2013-01-17 14:12:00,48.6,28.8,30.39,NE,36,13.0,16.0,46,0.00,,OVC004,0.00,VWS V14.01,2013-01-17 20:12:00,
2013-01-17 14:14:00,48.6,28.8,30.39,NNE,28,10.0,13.7,46,0.00,,OVC004,0.00,VWS V14.01,2013-01-17 20:14:00,
2013-01-17 14:15:00,48.6,28.8,30.39,NNE,28,9.4,11.9,46,0.00,,CLR,0.00,VWS V14.01,2013-01-17 20:15:00,
2013-01-17 14:16:00,48.6,28.8,30.39,NNE,12,7.2,11.9,46,0.00,,OVC004,0.00,VWS V14.01,2013-01-17 20:16:00,
2013-01-17 14:18:00,48.6,28.8,30.39,North,0,12.5,13.1,46,0.00,,OVC004,0.00,VWS V14.01,2013-01-17 20:18:00,
2013-01-17 14:20:00,48.6,28.1,30.39,North,9,7.8,13.1,45,0.00,,CLR,0.00,VWS V14.01,2013-01-17 20:20:00,
2013-01-17 14:22:00,48.6,28.1,30.39,NE,56,6.1,14.2,45,0.00,,OVC004,0.00,VWS V14.01,2013-01-17 20:22:00,
2013-01-17 14:24:00,48.7,29.0,30.39,NNE,18,10.8,11.3,46,0.00,,OVC004,0.00,VWS V14.01,2013-01-17 20:24:00,
2013-01-17 14:25:00,48.9,28.5,30.39,NNE,27,7.8,11.3,45,0.00,,CLR,0.00,VWS V14.01,2013-01-17 20:25:00,
2013-01-17 14:26:00,48.9,28.5,30.39,NNE,25,14.1,16.6,45,0.00,,OVC004,0.00,VWS V14.01,2013-01-17 20:26:00,
2013-01-17 14:28:00,48.9,28.5,30.39,WNW,286,5.0,16.6,45,0.00,,OVC004,0.00,VWS V14.01,2013-01-17 20:28:00,
2013-01-17 14:30:00,48.9,27.7,30.39,North,2,5.5,8.7,44,0.00,,CLR,0.00,VWS V14.01,2013-01-17 20:30:00,
2013-01-17 14:32:00,48.9,28.5,30.39,North,353,6.1,10.8,45,0.00,,OVC004,0.00,VWS V14.01,2013-01-17 20:32:00,
2013-01-17 14:34:00,48.9,28.5,30.39,North,7,7.8,11.3,45,0.00,,OVC004,0.00,VWS V14.01,2013-01-17 20:34:00,
2013-01-17 14:35:00,48.9,28.5,30.39,NNE,17,13.0,17.2,45,0.00,,CLR,0.00,VWS V14.01,2013-01-17 20:35:00,
2013-01-17 14:36:00,48.9,28.5,30.39,NE,38,7.8,17.2,45,0.00,,OVC004,0.00,VWS V14.01,2013-01-17 20:36:00,
2013-01-17 14:38:00,48.9,27.7,30.39,NNE,25,9.4,17.2,44,0.00,,OVC004,0.00,VWS V14.01,2013-01-17 20:38:00,
2013-01-17 14:40:00,48.7,27.6,30.39,NNE,21,7.2,11.3,44,0.00,,CLR,0.00,VWS V14.01,2013-01-17 20:40:00,
2013-01-17 14:42:00,48.6,27.4,30.39,NNW,334,9.4,10.8,44,0.00,,OVC004,0.00,VWS V14.01,2013-01-17 20:42:00,
2013-01-17 14:44:00,48.7,28.3,30.39,NNE,25,7.8,10.5,45,0.00,,OVC004,0.00,VWS V14.01,2013-01-17 20:44:00,
2013-01-17 14:45:00,48.7,28.3,30.39,North,357,6.1,10.5,45,0.00,,CLR,0.00,VWS V14.01,2013-01-17 20:45:00,
2013-01-17 14:46:00,48.7,28.3,30.39,NNE,30,10.3,10.8,45,0.00,,OVC004,0.00,VWS V14.01,2013-01-17 20:46:00,
2013-01-17 14:48:00,48.7,27.6,30.39,NNE,33,10.8,13.7,44,0.00,,OVC004,0.00,VWS V14.01,2013-01-17 20:48:00,
2013-01-17 14:50:00,48.9,27.7,30.39,North,353,14.7,15.4,44,0.00,,CLR,0.00,VWS V14.01,2013-01-17 20:50:00,
2013-01-17 14:52:00,48.7,27.6,30.39,NW,322,7.2,15.4,44,0.00,,OVC004,0.00,VWS V14.01,2013-01-17 20:52:00,
2013-01-17 14:54:00,48.7,27.6,30.39,ENE,63,7.8,11.3,44,0.00,,OVC004,0.00,VWS V14.01,2013-01-17 20:54:00,
2013-01-17 14:55:00,48.7,27.6,30.39,NNW,338,10.0,11.3,44,0.00,,CLR,0.00,VWS V14.01,2013-01-17 20:55:00,
2013-01-17 14:56:00,48.7,27.6,30.39,North,2,10.8,13.1,44,0.00,,OVC004,0.00,VWS V14.01,2013-01-17 20:56:00,
2013-01-17 14:58:00,48.6,27.4,30.39,NNW,334,6.7,13.7,44,0.00,,OVC004,0.00,VWS V14.01,2013-01-17 20:58:00,
2013-01-17 15:00:00,48.6,27.4,30.39,NNE,27,10.8,11.3,44,0.00,,CLR,0.00,VWS V14.01,2013-01-17 21:00:00,
2013-01-17 15:02:00,48.6,27.4,30.39,North,6,6.7,11.3,44,0.00,,OVC004,0.00,VWS V14.01,2013-01-17 21:02:00,
2013-01-17 15:04:00,48.7,27.6,30.39,NW,320,6.7,9.9,44,0.00,,OVC004,0.00,VWS V14.01,2013-01-17 21:04:00,
2013-01-17 15:05:00,48.7,27.6,30.39,North,0,9.4,9.9,44,0.00,,CLR,0.00,VWS V14.01,2013-01-17 21:05:00,
2013-01-17 15:06:00,48.7,27.6,30.39,NE,42,9.4,9.9,44,0.00,,OVC004,0.00,VWS V14.01,2013-01-17 21:06:00,
2013-01-17 15:08:00,48.7,27.6,30.39,NNE,33,9.4,12.5,44,0.00,,OVC004,0.00,VWS V14.01,2013-01-17 21:08:00,
2013-01-17 15:10:00,48.7,27.6,30.39,East,83,3.9,11.3,44,0.00,,CLR,0.00,VWS V14.01,2013-01-17 21:10:00,
2013-01-17 15:12:00,48.9,27.7,30.39,NNW,337,9.4,12.5,44,0.00,,OVC004,0.00,VWS V14.01,2013-01-17 21:12:00,
2013-01-17 15:14:00,48.9,27.7,30.39,North,1,7.8,13.1,44,0.00,,OVC004,0.00,VWS V14.01,2013-01-17 21:14:00,
2013-01-17 15:15:00,48.7,27.6,30.39,West,275,7.8,14.2,44,0.00,,CLR,0.00,VWS V14.01,2013-01-17 21:15:00,
2013-01-17 15:16:00,48.7,27.6,30.39,NNW,332,3.9,14.2,44,0.00,,OVC004,0.00,VWS V14.01,2013-01-17 21:16:00,
2013-01-17 15:18:00,48.6,27.4,30.39,North,353,6.7,12.5,44,0.00,,OVC004,0.00,VWS V14.01,2013-01-17 21:18:00,
2013-01-17 15:20:00,48.6,26.7,30.39,NNE,13,3.9,13.1,42,0.00,,CLR,0.00,VWS V14.01,2013-01-17 21:20:00,
2013-01-17 15:22:00,48.6,26.7,30.39,NNE,12,9.4,10.8,42,0.00,,OVC004,0.00,VWS V14.01,2013-01-17 21:22:00,
2013-01-17 15:24:00,48.6,26.7,30.39,North,3,12.5,13.7,42,0.00,,OVC004,0.00,VWS V14.01,2013-01-17 21:24:00,
2013-01-17 15:25:00,48.6,27.4,30.39,NNE,30,4.4,13.1,44,0.00,,CLR,0.00,VWS V14.01,2013-01-17 21:25:00,
2013-01-17 15:26:00,48.6,27.4,30.39,ENE,59,4.4,13.1,44,0.00,,OVC004,0.00,VWS V14.01,2013-01-17 21:26:00,
2013-01-17 15:28:00,48.7,27.6,30.39,North,357,6.7,15.4,44,0.00,,OVC004,0.00,VWS V14.01,2013-01-17 21:28:00,
2013-01-17 15:30:00,48.7,27.6,30.39,NNE,28,6.1,8.1,44,0.00,,CLR,0.00,VWS V14.01,2013-01-17 21:30:00,
2013-01-17 15:32:00,48.7,27.6,30.39,NNE,28,7.8,10.8,44,0.00,,OVC004,0.00,VWS V14.01,2013-01-17 21:32:00,
2013-01-17 15:34:00,48.9,27.7,30.39,NNW,328,4.4,8.1,44,0.00,,OVC004,0.00,VWS V14.01,2013-01-17 21:34:00,
2013-01-17 15:35:00,48.9,27.7,30.39,NNE,23,6.1,6.4,44,0.00,,CLR,0.00,VWS V14.01,2013-01-17 21:35:00,
2013-01-17 15:36:00,48.9,27.7,30.39,NNE,25,6.7,7.0,44,0.00,,OVC004,0.00,VWS V14.01,2013-01-17 21:36:00,
2013-01-17 15:38:00,49.1,27.9,30.39,NE,50,10.3,10.8,44,0.00,,OVC004,0.00,VWS V14.01,2013-01-17 21:38:00,
2013-01-17 15:40:00,49.1,27.9,30.39,NNE,21,8.9,14.8,44,0.00,,CLR,0.00,VWS V14.01,2013-01-17 21:40:00,
2013-01-17 15:42:00,48.9,27.7,30.39,NNE,21,7.2,11.3,44,0.00,,OVC004,0.00,VWS V14.01,2013-01-17 21:42:00,
2013-01-17 15:44:00,48.9,27.0,30.39,NNE,13,7.2,13.7,42,0.00,,OVC004,0.00,VWS V14.01,2013-01-17 21:44:00,
2013-01-17 15:45:00,48.9,27.0,30.39,North,9,10.0,11.3,42,0.00,,CLR,0.00,VWS V14.01,2013-01-17 21:45:00,
2013-01-17 15:46:00,48.9,27.0,30.39,NE,34,10.3,11.3,42,0.00,,OVC004,0.00,VWS V14.01,2013-01-17 21:46:00,
2013-01-17 15:48:00,48.9,27.7,30.39,NNE,12,9.4,10.5,44,0.00,,OVC004,0.00,VWS V14.01,2013-01-17 21:48:00,
2013-01-17 15:50:00,48.9,27.7,30.39,NNE,23,6.1,8.1,44,0.00,,CLR,0.00,VWS V14.01,2013-01-17 21:50:00,
2013-01-17 15:52:00,48.9,27.7,30.39,NE,44,6.1,8.1,44,0.00,,OVC004,0.00,VWS V14.01,2013-01-17 21:52:00,
2013-01-17 15:54:00,48.9,27.7,30.39,NNE,12,10.0,11.3,44,0.00,,OVC004,0.00,VWS V14.01,2013-01-17 21:54:00,
2013-01-17 15:56:00,48.9,27.7,30.39,NE,41,13.6,14.2,44,0.00,,CLR,0.00,VWS V14.01,2013-01-17 21:56:00,
2013-01-17 15:58:00,48.7,27.6,30.39,NE,44,15.3,16.0,44,0.00,,OVC004,0.00,VWS V14.01,2013-01-17 21:58:00,
2013-01-17 16:00:00,48.7,26.8,30.39,North,357,7.8,16.0,42,0.00,,OVC004,0.00,VWS V14.01,2013-01-17 22:00:00,
2013-01-17 16:01:00,48.7,26.8,30.39,NNE,19,7.2,10.5,42,0.00,,CLR,0.00,VWS V14.01,2013-01-17 22:01:00,
2013-01-17 16:02:00,48.7,26.8,30.39,NNE,14,10.0,10.5,42,0.00,,OVC004,0.00,VWS V14.01,2013-01-17 22:02:00,
2013-01-17 16:04:00,48.6,26.7,30.39,NE,39,4.4,10.5,42,0.00,,OVC004,0.00,VWS V14.01,2013-01-17 22:04:00,
2013-01-17 16:06:00,48.6,27.4,30.39,North,0,8.9,9.9,44,0.00,,CLR,0.00,VWS V14.01,2013-01-17 22:06:00,
2013-01-17 16:08:00,48.6,27.4,30.39,North,353,4.4,10.5,44,0.00,,OVC004,0.00,VWS V14.01,2013-01-17 22:08:00,
2013-01-17 16:10:00,48.6,27.4,30.39,NNW,344,7.2,8.1,44,0.00,,OVC004,0.00,VWS V14.01,2013-01-17 22:10:00,
2013-01-17 16:11:00,48.6,27.4,30.39,North,11,3.9,8.1,44,0.00,,CLR,0.00,VWS V14.01,2013-01-17 22:11:00,
2013-01-17 16:12:00,48.6,26.7,30.39,NW,314,6.7,8.1,42,0.00,,OVC004,0.00,VWS V14.01,2013-01-17 22:12:00,
2013-01-17 16:14:00,48.4,26.5,30.39,NNE,17,3.9,7.6,42,0.00,,OVC004,0.00,VWS V14.01,2013-01-17 22:14:00,
2013-01-17 16:16:00,48.4,26.5,30.39,NNE,32,4.4,8.1,42,0.00,,CLR,0.00,VWS V14.01,2013-01-17 22:16:00,
2013-01-17 16:18:00,48.2,26.3,30.39,North,357,2.8,4.7,42,0.00,,OVC004,0.00,VWS V14.01,2013-01-17 22:18:00,
2013-01-17 16:20:00,48.2,26.3,30.39,North,0,0.0,7.6,42,0.00,,OVC004,0.00,VWS V14.01,2013-01-17 22:20:00,
2013-01-17 16:21:00,48.2,26.3,30.39,NNW,346,6.7,7.6,42,0.00,,CLR,0.00,VWS V14.01,2013-01-17 22:21:00,
2013-01-17 16:22:00,48.2,26.3,30.39,NW,314,0.0,7.0,42,0.00,,OVC004,0.00,VWS V14.01,2013-01-17 22:22:00,
2013-01-17 16:24:00,48.0,26.9,30.39,NE,44,6.7,7.6,44,0.00,,OVC004,0.00,VWS V14.01,2013-01-17 22:24:00,
2013-01-17 16:26:00,48.0,26.9,30.39,NNE,29,5.0,13.1,44,0.00,,CLR,0.00,VWS V14.01,2013-01-17 22:26:00,
2013-01-17 16:28:00,48.0,26.2,30.39,NNE,13,9.4,10.8,42,0.00,,OVC004,0.00,VWS V14.01,2013-01-17 22:28:00,
2013-01-17 16:30:00,48.0,26.2,30.39,NNE,26,7.2,8.1,42,0.00,,OVC004,0.00,VWS V14.01,2013-01-17 22:30:00,
2013-01-17 16:31:00,48.0,26.2,30.39,NE,52,7.2,8.7,42,0.00,,CLR,0.00,VWS V14.01,2013-01-17 22:31:00,
2013-01-17 16:32:00,48.0,26.2,30.39,North,10,6.1,8.7,42,0.00,,OVC004,0.00,VWS V14.01,2013-01-17 22:32:00,
2013-01-17 16:34:00,47.8,26.0,30.39,North,357,6.7,8.1,42,0.00,,OVC004,0.00,VWS V14.01,2013-01-17 22:34:00,
2013-01-17 16:36:00,47.8,26.0,30.39,NE,40,3.3,8.1,42,0.00,,CLR,0.00,VWS V14.01,2013-01-17 22:36:00,
2013-01-17 16:38:00,47.8,26.0,30.39,NNE,19,5.0,5.2,42,0.00,,OVC004,0.00,VWS V14.01,2013-01-17 22:38:00,
2013-01-17 16:40:00,47.8,26.0,30.42,NNW,338,4.4,7.0,42,0.00,,OVC004,0.00,VWS V14.01,2013-01-17 22:40:00,
2013-01-17 16:41:00,47.8,26.0,30.42,North,5,6.7,8.1,42,0.00,,CLR,0.00,VWS V14.01,2013-01-17 22:41:00,
2013-01-17 16:42:00,47.7,25.9,30.42,NE,46,6.7,8.1,42,0.00,,OVC004,0.00,VWS V14.01,2013-01-17 22:42:00,
2013-01-17 16:44:00,47.7,26.6,30.42,North,0,3.3,7.6,44,0.00,,OVC004,0.00,VWS V14.01,2013-01-17 22:44:00,
2013-01-17 16:46:00,47.5,26.4,30.42,North,357,3.3,6.4,44,0.00,,CLR,0.00,VWS V14.01,2013-01-17 22:46:00,
2013-01-17 16:48:00,47.5,26.4,30.42,NNW,344,0.0,5.2,44,0.00,,OVC004,0.00,VWS V14.01,2013-01-17 22:48:00,
2013-01-17 16:50:00,47.3,26.3,30.42,North,350,6.7,7.0,44,0.00,,OVC004,0.00,VWS V14.01,2013-01-17 22:50:00,
2013-01-17 16:51:00,47.3,26.3,30.42,North,3,7.2,8.1,44,0.00,,CLR,0.00,VWS V14.01,2013-01-17 22:51:00,
2013-01-17 16:52:00,47.3,26.3,30.42,NNE,24,3.3,8.1,44,0.00,,OVC004,0.00,VWS V14.01,2013-01-17 22:52:00,
2013-01-17 16:54:00,47.1,26.1,30.42,NNW,342,5.0,7.0,44,0.00,,OVC004,0.00,VWS V14.01,2013-01-17 22:54:00,
2013-01-17 16:56:00,47.1,26.1,30.42,North,353,0.0,7.0,44,0.00,,CLR,0.00,VWS V14.01,2013-01-17 22:56:00,
2013-01-17 16:58:00,46.9,25.9,30.42,NNW,338,4.4,4.7,44,0.00,,OVC004,0.00,VWS V14.01,2013-01-17 22:58:00,
2013-01-17 17:00:00,46.9,25.9,30.42,NNW,330,0.0,5.2,44,0.00,,OVC004,0.00,VWS V14.01,2013-01-17 23:00:00,
2013-01-17 17:01:00,46.8,25.8,30.42,North,357,5.0,5.2,44,0.00,,CLR,0.00,VWS V14.01,2013-01-17 23:01:00,
2013-01-17 17:02:00,46.6,25.6,30.42,North,11,2.8,7.0,44,0.00,,OVC004,0.00,VWS V14.01,2013-01-17 23:02:00,
2013-01-17 17:04:00,46.6,25.6,30.42,NNE,19,4.4,5.2,44,0.00,,OVC004,0.00,VWS V14.01,2013-01-17 23:04:00,
2013-01-17 17:06:00,46.4,26.2,30.42,North,353,5.0,6.4,45,0.00,,CLR,0.00,VWS V14.01,2013-01-17 23:06:00,
2013-01-17 17:08:00,46.4,26.2,30.42,North,0,3.3,5.2,45,0.00,,OVC004,0.00,VWS V14.01,2013-01-17 23:08:00,
2013-01-17 17:10:00,46.0,25.8,30.42,NNE,19,3.9,6.4,45,0.00,,OVC004,0.00,VWS V14.01,2013-01-17 23:10:00,
2013-01-17 17:11:00,46.0,25.8,30.42,North,3,3.9,8.1,45,0.00,,CLR,0.00,VWS V14.01,2013-01-17 23:11:00,
2013-01-17 17:12:00,45.9,25.7,30.42,North,9,3.3,8.1,45,0.00,,OVC004,0.00,VWS V14.01,2013-01-17 23:12:00,
2013-01-17 17:14:00,45.5,25.4,30.42,North,357,5.0,7.6,45,0.00,,OVC004,0.00,VWS V14.01,2013-01-17 23:14:00,
2013-01-17 17:16:00,45.3,25.2,30.42,North,4,2.8,5.2,45,0.00,,CLR,0.00,VWS V14.01,2013-01-17 23:16:00,
2013-01-17 17:18:00,45.1,25.0,30.42,North,4,0.0,2.9,45,0.00,,OVC004,0.00,VWS V14.01,2013-01-17 23:18:00,
2013-01-17 17:20:00,44.8,24.7,30.42,NNE,15,3.3,4.7,45,0.00,,OVC004,0.00,VWS V14.01,2013-01-17 23:20:00,
2013-01-17 17:21:00,44.8,25.4,30.42,North,353,3.9,4.7,46,0.00,,CLR,0.00,VWS V14.01,2013-01-17 23:21:00,
2013-01-17 17:22:00,44.6,25.2,30.42,North,353,0.0,4.7,46,0.00,,OVC004,0.00,VWS V14.01,2013-01-17 23:22:00,
2013-01-17 17:24:00,44.4,25.1,30.42,North,357,0.0,3.5,46,0.00,,OVC004,0.00,VWS V14.01,2013-01-17 23:24:00,
2013-01-17 17:26:00,44.1,24.7,30.42,North,357,0.0,2.9,46,0.00,,CLR,0.00,VWS V14.01,2013-01-17 23:26:00,
2013-01-17 17:28:00,43.9,24.6,30.42,North,6,0.0,4.7,46,0.00,,OVC004,0.00,VWS V14.01,2013-01-17 23:28:00,
2013-01-17 17:30:00,43.5,24.2,30.42,North,357,3.3,4.1,46,0.00,,OVC004,0.00,VWS V14.01,2013-01-17 23:30:00,
2013-01-17 17:31:00,43.5,24.2,30.42,North,357,3.3,4.1,46,0.00,,CLR,0.00,VWS V14.01,2013-01-17 23:31:00,
2013-01-17 17:32:00,43.3,24.1,30.42,NNE,14,3.9,7.6,46,0.00,,OVC004,0.00,VWS V14.01,2013-01-17 23:32:00,
2013-01-17 17:34:00,43.0,23.7,30.42,NNE,17,5.0,6.4,46,0.00,,OVC004,0.00,VWS V14.01,2013-01-17 23:34:00,
2013-01-17 17:36:00,42.8,23.6,30.42,North,10,3.9,5.2,46,0.00,,CLR,0.00,VWS V14.01,2013-01-17 23:36:00,
2013-01-17 17:38:00,42.4,23.9,30.42,North,5,3.9,7.0,48,0.00,,OVC004,0.00,VWS V14.01,2013-01-17 23:38:00,
2013-01-17 17:40:00,42.3,23.8,30.42,North,353,3.9,4.7,48,0.00,,OVC004,0.00,VWS V14.01,2013-01-17 23:40:00,
2013-01-17 17:41:00,42.3,23.8,30.42,North,357,2.8,4.7,48,0.00,,CLR,0.00,VWS V14.01,2013-01-17 23:41:00,
2013-01-17 17:42:00,42.1,23.6,30.42,North,4,3.3,4.7,48,0.00,,OVC004,0.00,VWS V14.01,2013-01-17 23:42:00,
2013-01-17 17:44:00,41.9,23.4,30.42,North,3,3.3,4.7,48,0.00,,OVC004,0.00,VWS V14.01,2013-01-17 23:44:00,
2013-01-17 17:46:00,41.5,23.1,30.42,North,353,3.3,4.1,48,0.00,,CLR,0.00,VWS V14.01,2013-01-17 23:46:00,
2013-01-17 17:48:00,41.5,23.7,30.42,North,353,0.0,3.5,49,0.00,,OVC004,0.00,VWS V14.01,2013-01-17 23:48:00,
2013-01-17 17:50:00,41.2,23.4,30.42,NNE,18,2.8,5.8,49,0.00,,OVC004,0.00,VWS V14.01,2013-01-17 23:50:00,
2013-01-17 17:51:00,41.2,23.4,30.42,North,2,4.4,5.2,49,0.00,,CLR,0.00,VWS V14.01,2013-01-17 23:51:00,
2013-01-17 17:52:00,41.0,23.2,30.42,North,357,2.8,4.7,49,0.00,,OVC004,0.00,VWS V14.01,2013-01-17 23:52:00,
2013-01-17 17:54:00,41.0,23.9,30.42,NNW,340,2.8,7.6,50,0.00,,OVC004,0.00,VWS V14.01,2013-01-17 23:54:00,
2013-01-17 17:56:00,40.8,23.7,30.42,North,9,3.3,4.1,50,0.00,,CLR,0.00,VWS V14.01,2013-01-17 23:56:00,
2013-01-17 17:58:00,40.6,23.5,30.42,North,3,0.0,3.5,50,0.00,,OVC004,0.00,VWS V14.01,2013-01-17 23:58:00,
2013-01-17 18:00:00,40.6,23.5,30.42,North,3,0.0,0.0,50,0.00,,OVC004,0.00,VWS V14.01,2013-01-18 00:00:00,
2013-01-17 18:01:00,40.6,23.5,30.42,NNE,14,3.3,3.5,50,0.00,,CLR,0.00,VWS V14.01,2013-01-18 00:01:00,
2013-01-17 18:02:00,40.5,24.0,30.42,NNE,14,0.0,4.1,51,0.00,,OVC004,0.00,VWS V14.01,2013-01-18 00:02:00,
2013-01-17 18:04:00,40.5,24.0,30.42,NNE,12,2.8,4.1,51,0.00,,OVC004,0.00,VWS V14.01,2013-01-18 00:04:00,
2013-01-17 18:06:00,40.3,23.8,30.42,NNE,26,3.9,4.7,51,0.00,,CLR,0.00,VWS V14.01,2013-01-18 00:06:00,
2013-01-17 18:08:00,40.3,23.8,30.42,NNE,17,3.9,4.7,51,0.00,,OVC004,0.00,VWS V14.01,2013-01-18 00:08:00,
2013-01-17 18:10:00,40.1,23.7,30.42,NNE,17,2.8,4.1,51,0.00,,OVC004,0.00,VWS V14.01,2013-01-18 00:10:00,
2013-01-17 18:11:00,40.1,23.7,30.42,NNE,16,3.3,4.7,51,0.00,,CLR,0.00,VWS V14.01,2013-01-18 00:11:00,
2013-01-17 18:12:00,40.1,23.7,30.42,NNE,20,3.3,4.7,51,0.00,,OVC004,0.00,VWS V14.01,2013-01-18 00:12:00,
2013-01-17 18:14:00,39.9,23.5,30.42,NNE,23,3.9,4.7,51,0.00,,OVC004,0.00,VWS V14.01,2013-01-18 00:14:00,
2013-01-17 18:16:00,39.9,23.5,30.42,NE,34,0.0,3.5,51,0.00,,CLR,0.00,VWS V14.01,2013-01-18 00:16:00,
2013-01-17 18:18:00,39.7,23.3,30.42,NNE,20,0.0,0.0,51,0.00,,OVC004,0.00,VWS V14.01,2013-01-18 00:18:00,
2013-01-17 18:20:00,39.7,23.3,30.42,NNE,23,0.0,2.9,51,0.00,,OVC004,0.00,VWS V14.01,2013-01-18 00:20:00,
2013-01-17 18:21:00,39.6,23.2,30.42,NNE,23,0.0,0.0,51,0.00,,CLR,0.00,VWS V14.01,2013-01-18 00:21:00,
2013-01-17 18:22:00,39.6,23.2,30.42,NNE,22,0.0,0.0,51,0.00,,OVC004,0.00,VWS V14.01,2013-01-18 00:22:00,
2013-01-17 18:24:00,39.2,22.8,30.42,NNE,19,3.9,4.1,51,0.00,,OVC004,0.00,VWS V14.01,2013-01-18 00:24:00,
2013-01-17 18:26:00,38.8,23.1,30.45,North,357,0.0,3.5,53,0.00,,CLR,0.00,VWS V14.01,2013-01-18 00:26:00,
2013-01-17 18:28:00,38.8,23.1,30.45,North,3,0.0,0.0,53,0.00,,OVC004,0.00,VWS V14.01,2013-01-18 00:28:00,
2013-01-17 18:30:00,38.5,22.8,30.45,North,3,0.0,0.0,53,0.00,,OVC004,0.00,VWS V14.01,2013-01-18 00:30:00,
2013-01-17 18:31:00,38.3,22.6,30.45,North,3,0.0,0.0,53,0.00,,CLR,0.00,VWS V14.01,2013-01-18 00:31:00,
2013-01-17 18:32:00,38.1,22.4,30.45,North,3,0.0,0.0,53,0.00,,OVC004,0.00,VWS V14.01,2013-01-18 00:32:00,
2013-01-17 18:34:00,37.9,22.3,30.45,North,3,0.0,0.0,53,0.00,,OVC004,0.00,VWS V14.01,2013-01-18 00:34:00,
2013-01-17 18:36:00,37.6,21.9,30.45,North,3,0.0,0.0,53,0.00,,CLR,0.00,VWS V14.01,2013-01-18 00:36:00,
2013-01-17 18:38:00,37.4,21.8,30.45,North,3,0.0,0.0,53,0.00,,OVC004,0.00,VWS V14.01,2013-01-18 00:38:00,
2013-01-17 18:40:00,37.0,21.4,30.45,North,3,0.0,0.0,53,0.00,,OVC004,0.00,VWS V14.01,2013-01-18 00:40:00,
2013-01-17 18:41:00,37.0,21.4,30.45,North,3,0.0,0.0,53,0.00,,CLR,0.00,VWS V14.01,2013-01-18 00:41:00,
2013-01-17 18:42:00,36.9,21.8,30.45,North,3,0.0,0.0,54,0.00,,OVC004,0.00,VWS V14.01,2013-01-18 00:42:00,
2013-01-17 18:44:00,36.7,21.7,30.45,North,3,0.0,0.0,54,0.00,,OVC004,0.00,VWS V14.01,2013-01-18 00:44:00,
2013-01-17 18:46:00,36.5,21.5,30.45,North,3,0.0,0.0,54,0.00,,CLR,0.00,VWS V14.01,2013-01-18 00:46:00,
2013-01-17 18:48:00,36.1,21.2,30.45,North,3,0.0,0.0,54,0.00,,OVC004,0.00,VWS V14.01,2013-01-18 00:48:00,
2013-01-17 18:50:00,36.1,21.2,30.45,North,3,0.0,0.0,54,0.00,,OVC004,0.00,VWS V14.01,2013-01-18 00:50:00,
2013-01-17 18:51:00,36.0,21.0,30.45,North,3,0.0,0.0,54,0.00,,CLR,0.00,VWS V14.01,2013-01-18 00:51:00,
2013-01-17 18:52:00,36.0,21.0,30.45,North,3,0.0,0.0,54,0.00,,OVC004,0.00,VWS V14.01,2013-01-18 00:52:00,
2013-01-17 18:54:00,36.0,21.0,30.45,North,3,0.0,0.0,54,0.00,,OVC004,0.00,VWS V14.01,2013-01-18 00:54:00,
2013-01-17 18:56:00,36.0,21.6,30.45,North,3,0.0,0.0,55,0.00,,CLR,0.00,VWS V14.01,2013-01-18 00:56:00,
2013-01-17 18:58:00,36.0,21.6,30.45,North,3,0.0,0.0,55,0.00,,OVC004,0.00,VWS V14.01,2013-01-18 00:58:00,
2013-01-17 19:00:00,36.0,21.6,30.45,North,3,0.0,0.0,55,0.00,,OVC004,0.00,VWS V14.01,2013-01-18 01:00:00,
2013-01-17 19:02:00,36.0,21.6,30.45,North,3,0.0,0.0,55,0.00,,CLR,0.00,VWS V14.01,2013-01-18 01:02:00,
2013-01-17 19:04:00,36.0,21.6,30.45,North,3,0.0,0.0,55,0.00,,OVC004,0.00,VWS V14.01,2013-01-18 01:04:00,
2013-01-17 19:06:00,36.0,21.6,30.45,North,3,0.0,0.0,55,0.00,,OVC004,0.00,VWS V14.01,2013-01-18 01:06:00,
2013-01-17 19:07:00,36.0,21.6,30.45,North,3,0.0,0.0,55,0.00,,CLR,0.00,VWS V14.01,2013-01-18 01:07:00,
2013-01-17 19:08:00,36.0,21.6,30.45,North,3,0.0,0.0,55,0.00,,OVC004,0.00,VWS V14.01,2013-01-18 01:08:00,
2013-01-17 19:10:00,35.8,22.0,30.45,North,3,0.0,0.0,57,0.00,,OVC004,0.00,VWS V14.01,2013-01-18 01:10:00,
2013-01-17 19:12:00,35.8,22.0,30.45,North,3,0.0,0.0,57,0.00,,CLR,0.00,VWS V14.01,2013-01-18 01:12:00,
2013-01-17 19:14:00,35.8,22.0,30.45,North,3,0.0,0.0,57,0.00,,OVC004,0.00,VWS V14.01,2013-01-18 01:14:00,
2013-01-17 19:16:00,35.6,21.8,30.45,North,3,0.0,0.0,57,0.00,,OVC004,0.00,VWS V14.01,2013-01-18 01:16:00,
2013-01-17 19:17:00,35.6,21.8,30.45,North,3,0.0,0.0,57,0.00,,CLR,0.00,VWS V14.01,2013-01-18 01:17:00,
2013-01-17 19:18:00,35.6,21.8,30.45,North,3,0.0,0.0,57,0.00,,OVC004,0.00,VWS V14.01,2013-01-18 01:18:00,
2013-01-17 19:20:00,35.4,22.2,30.45,North,3,0.0,0.0,58,0.00,,OVC004,0.00,VWS V14.01,2013-01-18 01:20:00,
2013-01-17 19:22:00,35.1,21.8,30.45,North,3,0.0,0.0,58,0.00,,CLR,0.00,VWS V14.01,2013-01-18 01:22:00,
2013-01-17 19:24:00,34.9,21.6,30.45,North,3,0.0,0.0,58,0.00,,OVC004,0.00,VWS V14.01,2013-01-18 01:24:00,
2013-01-17 19:26:00,34.7,21.5,30.45,North,3,0.0,0.0,58,0.00,,OVC004,0.00,VWS V14.01,2013-01-18 01:26:00,
2013-01-17 19:27:00,34.7,21.5,30.45,North,3,0.0,0.0,58,0.00,,CLR,0.00,VWS V14.01,2013-01-18 01:27:00,
2013-01-17 19:28:00,34.7,21.5,30.45,North,3,0.0,0.0,58,0.00,,OVC004,0.00,VWS V14.01,2013-01-18 01:28:00,
2013-01-17 19:30:00,34.3,21.1,30.45,North,3,0.0,0.0,58,0.00,,OVC004,0.00,VWS V14.01,2013-01-18 01:30:00,
2013-01-17 19:32:00,34.3,21.1,30.45,North,3,0.0,0.0,58,0.00,,CLR,0.00,VWS V14.01,2013-01-18 01:32:00,
2013-01-17 19:34:00,34.2,21.0,30.45,North,3,0.0,0.0,58,0.00,,OVC004,0.00,VWS V14.01,2013-01-18 01:34:00,
2013-01-17 19:36:00,34.0,20.8,30.45,North,3,0.0,0.0,58,0.00,,OVC004,0.00,VWS V14.01,2013-01-18 01:36:00,
2013-01-17 19:37:00,34.0,20.8,30.45,North,3,0.0,0.0,58,0.00,,CLR,0.00,VWS V14.01,2013-01-18 01:37:00,
2013-01-17 19:38:00,33.8,20.6,30.45,North,3,0.0,0.0,58,0.00,,OVC004,0.00,VWS V14.01,2013-01-18 01:38:00,
2013-01-17 19:40:00,33.6,21.0,30.45,North,3,0.0,0.0,59,0.00,,OVC004,0.00,VWS V14.01,2013-01-18 01:40:00,
2013-01-17 19:42:00,33.4,20.8,30.45,North,3,0.0,0.0,59,0.00,,CLR,0.00,VWS V14.01,2013-01-18 01:42:00,
2013-01-17 19:44:00,33.3,20.7,30.45,North,3,0.0,0.0,59,0.00,,OVC004,0.00,VWS V14.01,2013-01-18 01:44:00,
2013-01-17 19:46:00,33.1,20.5,30.45,North,3,0.0,0.0,59,0.00,,OVC004,0.00,VWS V14.01,2013-01-18 01:46:00,
2013-01-17 19:47:00,33.1,20.5,30.45,North,3,0.0,0.0,59,0.00,,CLR,0.00,VWS V14.01,2013-01-18 01:47:00,
2013-01-17 19:48:00,32.9,20.3,30.45,North,3,0.0,0.0,59,0.00,,OVC004,0.00,VWS V14.01,2013-01-18 01:48:00,
2013-01-17 19:50:00,32.9,20.8,30.45,North,3,0.0,0.0,61,0.00,,OVC004,0.00,VWS V14.01,2013-01-18 01:50:00,
2013-01-17 19:52:00,32.7,20.7,30.45,North,3,0.0,0.0,61,0.00,,CLR,0.00,VWS V14.01,2013-01-18 01:52:00,
2013-01-17 19:54:00,32.9,20.8,30.45,North,3,0.0,0.0,61,0.00,,OVC004,0.00,VWS V14.01,2013-01-18 01:54:00,
2013-01-17 19:56:00,32.9,20.8,30.45,North,3,0.0,0.0,61,0.00,,OVC004,0.00,VWS V14.01,2013-01-18 01:56:00,
2013-01-17 19:57:00,32.9,21.3,30.45,North,3,0.0,0.0,62,0.00,,CLR,0.00,VWS V14.01,2013-01-18 01:57:00,
2013-01-17 19:58:00,32.9,21.3,30.45,North,3,0.0,0.0,62,0.00,,OVC004,0.00,VWS V14.01,2013-01-18 01:58:00,
2013-01-17 20:00:00,32.7,21.2,30.45,North,3,0.0,0.0,62,0.00,,OVC004,0.00,VWS V14.01,2013-01-18 02:00:00,
2013-01-17 20:02:00,32.7,21.2,30.45,North,3,0.0,0.0,62,0.00,,CLR,0.00,VWS V14.01,2013-01-18 02:02:00,
2013-01-17 20:04:00,32.7,21.2,30.45,North,3,0.0,0.0,62,0.00,,OVC004,0.00,VWS V14.01,2013-01-18 02:04:00,
2013-01-17 20:06:00,32.7,21.7,30.45,North,3,0.0,0.0,63,0.00,,OVC004,0.00,VWS V14.01,2013-01-18 02:06:00,
2013-01-17 20:07:00,32.7,21.7,30.45,North,3,0.0,0.0,63,0.00,,CLR,0.00,VWS V14.01,2013-01-18 02:07:00,
2013-01-17 20:08:00,32.7,21.7,30.45,North,3,0.0,0.0,63,0.00,,OVC004,0.00,VWS V14.01,2013-01-18 02:08:00,
2013-01-17 20:10:00,32.7,21.7,30.45,North,3,0.0,0.0,63,0.00,,CLR,0.00,VWS V14.01,2013-01-18 02:10:00,
2013-01-17 20:12:00,32.7,21.7,30.45,North,3,0.0,0.0,63,0.00,,CLR,0.00,VWS V14.01,2013-01-18 02:12:00,
2013-01-17 20:14:00,32.7,21.7,30.45,North,3,0.0,0.0,63,0.00,,CLR,0.00,VWS V14.01,2013-01-18 02:14:00,
2013-01-17 20:16:00,32.5,21.5,30.45,North,3,0.0,0.0,63,0.00,,CLR,0.00,VWS V14.01,2013-01-18 02:16:00,
2013-01-17 20:18:00,32.4,21.3,30.45,North,3,0.0,0.0,63,0.00,,CLR,0.00,VWS V14.01,2013-01-18 02:18:00,
2013-01-17 20:20:00,32.0,21.5,30.45,North,3,0.0,0.0,65,0.00,,CLR,0.00,VWS V14.01,2013-01-18 02:20:00,
2013-01-17 20:22:00,31.8,21.3,30.45,North,3,0.0,0.0,65,0.00,,CLR,0.00,VWS V14.01,2013-01-18 02:22:00,
2013-01-17 20:24:00,31.6,21.1,30.45,North,3,0.0,0.0,65,0.00,,CLR,0.00,VWS V14.01,2013-01-18 02:24:00,
2013-01-17 20:26:00,31.5,21.0,30.45,North,3,0.0,0.0,65,0.00,,CLR,0.00,VWS V14.01,2013-01-18 02:26:00,
2013-01-17 20:28:00,31.3,20.8,30.45,North,3,0.0,0.0,65,0.00,,CLR,0.00,VWS V14.01,2013-01-18 02:28:00,
2013-01-17 20:30:00,31.1,20.6,30.45,North,3,0.0,0.0,65,0.00,,CLR,0.00,VWS V14.01,2013-01-18 02:30:00,
2013-01-17 20:32:00,30.9,20.9,30.45,North,3,0.0,0.0,66,0.00,,CLR,0.00,VWS V14.01,2013-01-18 02:32:00,
2013-01-17 20:34:00,30.7,20.7,30.45,North,3,0.0,0.0,66,0.00,,CLR,0.00,VWS V14.01,2013-01-18 02:34:00,
2013-01-17 20:36:00,30.6,20.6,30.45,North,3,0.0,0.0,66,0.00,,CLR,0.00,VWS V14.01,2013-01-18 02:36:00,
2013-01-17 20:38:00,30.4,20.4,30.45,North,3,0.0,0.0,66,0.00,,CLR,0.00,VWS V14.01,2013-01-18 02:38:00,
2013-01-17 20:40:00,30.4,20.4,30.45,North,3,0.0,0.0,66,0.00,,CLR,0.00,VWS V14.01,2013-01-18 02:40:00,
2013-01-17 20:42:00,30.2,20.7,30.45,North,3,0.0,0.0,67,0.00,,CLR,0.00,VWS V14.01,2013-01-18 02:42:00,
2013-01-17 20:44:00,30.2,20.7,30.45,North,3,0.0,0.0,67,0.00,,CLR,0.00,VWS V14.01,2013-01-18 02:44:00,
2013-01-17 20:46:00,30.2,20.7,30.45,North,3,0.0,0.0,67,0.00,,CLR,0.00,VWS V14.01,2013-01-18 02:46:00,
2013-01-17 20:48:00,30.0,20.5,30.45,North,3,0.0,0.0,67,0.00,,CLR,0.00,VWS V14.01,2013-01-18 02:48:00,
2013-01-17 20:50:00,29.8,20.4,30.45,North,3,0.0,0.0,67,0.00,,CLR,0.00,VWS V14.01,2013-01-18 02:50:00,
2013-01-17 20:52:00,29.8,20.4,30.45,North,3,0.0,0.0,67,0.00,,CLR,0.00,VWS V14.01,2013-01-18 02:52:00,
2013-01-17 20:54:00,29.7,20.2,30.45,North,3,0.0,0.0,67,0.00,,CLR,0.00,VWS V14.01,2013-01-18 02:54:00,
2013-01-17 20:56:00,29.5,20.0,30.45,North,3,0.0,0.0,67,0.00,,CLR,0.00,VWS V14.01,2013-01-18 02:56:00,
2013-01-17 20:58:00,29.5,20.0,30.45,North,3,0.0,0.0,67,0.00,,CLR,0.00,VWS V14.01,2013-01-18 02:58:00,
2013-01-17 21:00:00,29.5,20.5,30.45,North,3,0.0,0.0,69,0.00,,CLR,0.00,VWS V14.01,2013-01-18 03:00:00,
2013-01-17 21:02:00,29.5,20.5,30.45,North,3,0.0,0.0,69,0.00,,CLR,0.00,VWS V14.01,2013-01-18 03:02:00,
2013-01-17 21:04:00,29.5,20.5,30.45,North,3,0.0,0.0,69,0.00,,CLR,0.00,VWS V14.01,2013-01-18 03:04:00,
2013-01-17 21:06:00,29.5,20.5,30.45,North,3,0.0,0.0,69,0.00,,CLR,0.00,VWS V14.01,2013-01-18 03:06:00,
2013-01-17 21:08:00,29.3,20.3,30.45,North,3,0.0,0.0,69,0.00,,CLR,0.00,VWS V14.01,2013-01-18 03:08:00,
2013-01-17 21:10:00,29.1,20.1,30.45,North,3,0.0,0.0,69,0.00,,CLR,0.00,VWS V14.01,2013-01-18 03:10:00,
2013-01-17 21:12:00,28.9,19.9,30.45,North,3,0.0,0.0,69,0.00,,CLR,0.00,VWS V14.01,2013-01-18 03:12:00,
2013-01-17 21:14:00,28.9,19.9,30.45,North,3,0.0,0.0,69,0.00,,CLR,0.00,VWS V14.01,2013-01-18 03:14:00,
2013-01-17 21:16:00,28.9,19.9,30.45,North,3,0.0,0.0,69,0.00,,CLR,0.00,VWS V14.01,2013-01-18 03:16:00,
2013-01-17 21:18:00,28.9,20.4,30.45,North,3,0.0,0.0,70,0.00,,CLR,0.00,VWS V14.01,2013-01-18 03:18:00,
2013-01-17 21:20:00,28.9,20.4,30.45,North,3,0.0,0.0,70,0.00,,CLR,0.00,VWS V14.01,2013-01-18 03:20:00,
2013-01-17 21:22:00,28.9,20.4,30.45,North,3,0.0,0.0,70,0.00,,CLR,0.00,VWS V14.01,2013-01-18 03:22:00,
2013-01-17 21:24:00,28.6,20.0,30.45,North,3,0.0,0.0,70,0.00,,CLR,0.00,VWS V14.01,2013-01-18 03:24:00,
2013-01-17 21:26:00,28.6,20.0,30.45,North,3,0.0,0.0,70,0.00,,OVC004,0.00,VWS V14.01,2013-01-18 03:26:00,
2013-01-17 21:28:00,28.4,19.9,30.45,North,3,0.0,0.0,70,0.00,,OVC004,0.00,VWS V14.01,2013-01-18 03:28:00,
2013-01-17 21:30:00,28.2,19.7,30.45,North,3,0.0,0.0,70,0.00,,OVC004,0.00,VWS V14.01,2013-01-18 03:30:00,
2013-01-17 21:32:00,28.2,20.1,30.45,North,3,0.0,0.0,71,0.00,,OVC004,0.00,VWS V14.01,2013-01-18 03:32:00,
2013-01-17 21:34:00,28.2,20.1,30.45,North,3,0.0,0.0,71,0.00,,CLR,0.00,VWS V14.01,2013-01-18 03:34:00,
2013-01-17 21:36:00,28.4,20.3,30.45,North,3,0.0,0.0,71,0.00,,OVC004,0.00,VWS V14.01,2013-01-18 03:36:00,
2013-01-17 21:38:00,28.4,20.3,30.45,North,3,0.0,0.0,71,0.00,,OVC004,0.00,VWS V14.01,2013-01-18 03:38:00,
2013-01-17 21:39:00,28.4,20.3,30.45,North,3,0.0,0.0,71,0.00,,CLR,0.00,VWS V14.01,2013-01-18 03:39:00,
2013-01-17 21:40:00,28.4,20.3,30.45,North,3,0.0,0.0,71,0.00,,OVC004,0.00,VWS V14.01,2013-01-18 03:40:00,
2013-01-17 21:42:00,28.4,20.3,30.45,North,3,0.0,0.0,71,0.00,,OVC004,0.00,VWS V14.01,2013-01-18 03:42:00,
2013-01-17 21:44:00,28.4,20.3,30.45,North,3,0.0,0.0,71,0.00,,CLR,0.00,VWS V14.01,2013-01-18 03:44:00,
2013-01-17 21:46:00,28.2,20.1,30.45,North,3,0.0,0.0,71,0.00,,OVC004,0.00,VWS V14.01,2013-01-18 03:46:00,
2013-01-17 21:48:00,28.0,20.0,30.45,North,3,0.0,0.0,71,0.00,,OVC004,0.00,VWS V14.01,2013-01-18 03:48:00,
2013-01-17 21:49:00,27.9,19.8,30.45,North,3,0.0,0.0,71,0.00,,CLR,0.00,VWS V14.01,2013-01-18 03:49:00,
2013-01-17 21:50:00,27.9,19.8,30.45,North,3,0.0,0.0,71,0.00,,OVC004,0.00,VWS V14.01,2013-01-18 03:50:00,
2013-01-17 21:52:00,27.9,20.2,30.45,North,3,0.0,0.0,73,0.00,,OVC004,0.00,VWS V14.01,2013-01-18 03:52:00,
2013-01-17 21:54:00,27.7,20.0,30.45,North,3,0.0,0.0,73,0.00,,OVC004,0.00,VWS V14.01,2013-01-18 03:54:00,
2013-01-17 21:55:00,27.7,20.0,30.45,North,3,0.0,0.0,73,0.00,,CLR,0.00,VWS V14.01,2013-01-18 03:55:00,
2013-01-17 21:56:00,27.5,19.9,30.45,North,3,0.0,0.0,73,0.00,,OVC004,0.00,VWS V14.01,2013-01-18 03:56:00,
2013-01-17 21:58:00,27.5,19.9,30.45,North,3,0.0,0.0,73,0.00,,OVC004,0.00,VWS V14.01,2013-01-18 03:58:00,
2013-01-17 22:00:00,27.7,20.0,30.45,North,3,0.0,0.0,73,0.00,,CLR,0.00,VWS V14.01,2013-01-18 04:00:00,
2013-01-17 22:02:00,27.7,20.0,30.45,North,3,0.0,0.0,73,0.00,,OVC004,0.00,VWS V14.01,2013-01-18 04:02:00,
2013-01-17 22:04:00,27.7,20.5,30.45,North,3,0.0,0.0,74,0.00,,OVC004,0.00,VWS V14.01,2013-01-18 04:04:00,
2013-01-17 22:05:00,27.9,20.6,30.45,North,3,0.0,0.0,74,0.00,,CLR,0.00,VWS V14.01,2013-01-18 04:05:00,
2013-01-17 22:06:00,27.7,20.5,30.45,North,3,0.0,0.0,74,0.00,,OVC004,0.00,VWS V14.01,2013-01-18 04:06:00,
2013-01-17 22:08:00,27.7,20.5,30.45,North,3,0.0,0.0,74,0.00,,OVC004,0.00,VWS V14.01,2013-01-18 04:08:00,
2013-01-17 22:10:00,27.7,20.5,30.45,North,3,0.0,0.0,74,0.00,,CLR,0.00,VWS V14.01,2013-01-18 04:10:00,
2013-01-17 22:12:00,27.7,20.5,30.45,North,3,0.0,0.0,74,0.00,,OVC004,0.00,VWS V14.01,2013-01-18 04:12:00,
2013-01-17 22:14:00,27.5,20.3,30.45,North,3,0.0,0.0,74,0.00,,OVC004,0.00,VWS V14.01,2013-01-18 04:14:00,
2013-01-17 22:15:00,27.3,20.1,30.45,North,3,0.0,0.0,74,0.00,,CLR,0.00,VWS V14.01,2013-01-18 04:15:00,
2013-01-17 22:16:00,27.3,20.1,30.45,North,3,0.0,0.0,74,0.00,,OVC004,0.00,VWS V14.01,2013-01-18 04:16:00,
2013-01-17 22:18:00,27.1,19.9,30.45,North,3,0.0,0.0,74,0.00,,OVC004,0.00,VWS V14.01,2013-01-18 04:18:00,
2013-01-17 22:20:00,27.1,19.9,30.45,North,3,0.0,0.0,74,0.00,,CLR,0.00,VWS V14.01,2013-01-18 04:20:00,
2013-01-17 22:22:00,27.0,19.8,30.45,North,3,0.0,0.0,74,0.00,,OVC004,0.00,VWS V14.01,2013-01-18 04:22:00,
2013-01-17 22:24:00,27.0,19.8,30.45,North,3,0.0,0.0,74,0.00,,OVC004,0.00,VWS V14.01,2013-01-18 04:24:00,
2013-01-17 22:25:00,27.0,19.8,30.45,North,3,0.0,0.0,74,0.00,,CLR,0.00,VWS V14.01,2013-01-18 04:25:00,
2013-01-17 22:26:00,27.0,19.8,30.45,North,3,0.0,0.0,74,0.00,,OVC004,0.00,VWS V14.01,2013-01-18 04:26:00,
2013-01-17 22:28:00,26.8,19.6,30.45,North,3,0.0,0.0,74,0.00,,OVC004,0.00,VWS V14.01,2013-01-18 04:28:00,
2013-01-17 22:30:00,26.6,19.8,30.45,North,3,0.0,0.0,75,0.00,,CLR,0.00,VWS V14.01,2013-01-18 04:30:00,
2013-01-17 22:32:00,26.6,19.8,30.45,North,3,0.0,0.0,75,0.00,,OVC004,0.00,VWS V14.01,2013-01-18 04:32:00,
2013-01-17 22:34:00,26.6,20.2,30.45,North,3,0.0,0.0,77,0.00,,OVC004,0.00,VWS V14.01,2013-01-18 04:34:00,
2013-01-17 22:35:00,26.8,20.0,30.45,North,3,0.0,0.0,75,0.00,,CLR,0.00,VWS V14.01,2013-01-18 04:35:00,
2013-01-17 22:36:00,26.8,20.0,30.45,North,3,0.0,0.0,75,0.00,,OVC004,0.00,VWS V14.01,2013-01-18 04:36:00,
2013-01-17 22:38:00,27.0,20.6,30.45,North,3,0.0,0.0,77,0.00,,OVC004,0.00,VWS V14.01,2013-01-18 04:38:00,
2013-01-17 22:40:00,27.1,20.8,30.45,North,3,0.0,0.0,77,0.00,,CLR,0.00,VWS V14.01,2013-01-18 04:40:00,
2013-01-17 22:42:00,27.1,20.8,30.45,North,3,0.0,0.0,77,0.00,,OVC004,0.00,VWS V14.01,2013-01-18 04:42:00,
2013-01-17 22:44:00,27.1,20.8,30.45,North,3,0.0,0.0,77,0.00,,OVC004,0.00,VWS V14.01,2013-01-18 04:44:00,
2013-01-17 22:45:00,27.1,20.8,30.45,North,3,0.0,0.0,77,0.00,,CLR,0.00,VWS V14.01,2013-01-18 04:45:00,
2013-01-17 22:46:00,27.1,20.8,30.45,North,3,0.0,0.0,77,0.00,,OVC004,0.00,VWS V14.01,2013-01-18 04:46:00,
2013-01-17 22:48:00,27.0,20.6,30.45,North,3,0.0,0.0,77,0.00,,OVC004,0.00,VWS V14.01,2013-01-18 04:48:00,
2013-01-17 22:50:00,27.0,20.6,30.45,North,3,0.0,0.0,77,0.00,,CLR,0.00,VWS V14.01,2013-01-18 04:50:00,
2013-01-17 22:52:00,27.0,20.6,30.45,North,3,0.0,0.0,77,0.00,,OVC004,0.00,VWS V14.01,2013-01-18 04:52:00,
2013-01-17 22:54:00,27.0,20.6,30.45,North,3,0.0,0.0,77,0.00,,OVC004,0.00,VWS V14.01,2013-01-18 04:54:00,
2013-01-17 22:55:00,26.8,20.4,30.45,North,3,0.0,0.0,77,0.00,,CLR,0.00,VWS V14.01,2013-01-18 04:55:00,
2013-01-17 22:56:00,26.8,20.4,30.45,North,3,0.0,0.0,77,0.00,,OVC004,0.00,VWS V14.01,2013-01-18 04:56:00,
2013-01-17 22:58:00,26.6,20.2,30.45,North,3,0.0,0.0,77,0.00,,OVC004,0.00,VWS V14.01,2013-01-18 04:58:00,
2013-01-17 23:00:00,26.2,19.9,30.45,North,3,0.0,0.0,77,0.00,,CLR,0.00,VWS V14.01,2013-01-18 05:00:00,
2013-01-17 23:01:00,26.2,19.9,30.45,North,3,0.0,0.0,77,0.00,,CLR,0.00,VWS V14.01,2013-01-18 05:01:00,
2013-01-17 23:02:00,26.2,19.9,30.45,North,3,0.0,0.0,77,0.00,,OVC004,0.00,VWS V14.01,2013-01-18 05:02:00,
2013-01-17 23:03:00,26.1,19.7,30.45,North,3,0.0,0.0,77,0.00,,CLR,0.00,VWS V14.01,2013-01-18 05:03:00,
2013-01-17 23:04:00,26.1,19.7,30.45,North,3,0.0,0.0,77,0.00,,OVC004,0.00,VWS V14.01,2013-01-18 05:04:00,
2013-01-17 23:06:00,25.9,19.9,30.45,North,3,0.0,0.0,78,0.00,,OVC004,0.00,VWS V14.01,2013-01-18 05:06:00,
2013-01-17 23:08:00,25.9,19.9,30.45,North,3,0.0,0.0,78,0.00,,CLR,0.00,VWS V14.01,2013-01-18 05:08:00,
2013-01-17 23:10:00,25.9,19.9,30.48,North,3,0.0,0.0,78,0.00,,OVC004,0.00,VWS V14.01,2013-01-18 05:10:00,
2013-01-17 23:12:00,25.9,19.9,30.48,North,3,0.0,0.0,78,0.00,,OVC004,0.00,VWS V14.01,2013-01-18 05:12:00,
2013-01-17 23:13:00,25.7,19.8,30.48,North,3,0.0,0.0,78,0.00,,CLR,0.00,VWS V14.01,2013-01-18 05:13:00,
2013-01-17 23:14:00,25.7,19.8,30.48,North,3,0.0,0.0,78,0.00,,OVC004,0.00,VWS V14.01,2013-01-18 05:14:00,
2013-01-17 23:16:00,25.7,19.8,30.48,North,3,0.0,0.0,78,0.00,,OVC004,0.00,VWS V14.01,2013-01-18 05:16:00,
2013-01-17 23:18:00,25.7,19.8,30.48,North,3,0.0,0.0,78,0.00,,CLR,0.00,VWS V14.01,2013-01-18 05:18:00,
2013-01-17 23:20:00,25.7,19.8,30.48,North,3,0.0,0.0,78,0.00,,OVC004,0.00,VWS V14.01,2013-01-18 05:20:00,
2013-01-17 23:22:00,25.7,20.2,30.48,North,3,0.0,0.0,79,0.00,,OVC004,0.00,VWS V14.01,2013-01-18 05:22:00,
2013-01-17 23:23:00,25.7,20.2,30.48,North,3,0.0,0.0,79,0.00,,CLR,0.00,VWS V14.01,2013-01-18 05:23:00,
2013-01-17 23:24:00,25.7,20.2,30.48,North,3,0.0,0.0,79,0.00,,OVC004,0.00,VWS V14.01,2013-01-18 05:24:00,
2013-01-17 23:26:00,25.7,20.2,30.48,North,3,0.0,0.0,79,0.00,,OVC004,0.00,VWS V14.01,2013-01-18 05:26:00,
2013-01-17 23:28:00,25.7,20.2,30.48,North,3,0.0,0.0,79,0.00,,CLR,0.00,VWS V14.01,2013-01-18 05:28:00,
2013-01-17 23:30:00,25.7,20.2,30.48,North,3,0.0,0.0,79,0.00,,OVC004,0.00,VWS V14.01,2013-01-18 05:30:00,
2013-01-17 23:32:00,25.7,20.2,30.48,North,3,0.0,0.0,79,0.00,,OVC004,0.00,VWS V14.01,2013-01-18 05:32:00,
2013-01-17 23:33:00,25.5,20.0,30.48,North,3,0.0,0.0,79,0.00,,CLR,0.00,VWS V14.01,2013-01-18 05:33:00,
2013-01-17 23:34:00,25.5,20.0,30.48,North,3,0.0,0.0,79,0.00,,OVC004,0.00,VWS V14.01,2013-01-18 05:34:00,
2013-01-17 23:36:00,25.5,20.0,30.48,North,3,0.0,0.0,79,0.00,,OVC004,0.00,VWS V14.01,2013-01-18 05:36:00,
2013-01-17 23:38:00,25.5,20.0,30.48,North,3,0.0,0.0,79,0.00,,CLR,0.00,VWS V14.01,2013-01-18 05:38:00,
2013-01-17 23:40:00,25.7,20.5,30.48,North,3,0.0,0.0,81,0.00,,OVC004,0.00,VWS V14.01,2013-01-18 05:40:00,
2013-01-17 23:42:00,25.7,20.5,30.48,North,3,0.0,0.0,81,0.00,,OVC004,0.00,VWS V14.01,2013-01-18 05:42:00,
2013-01-17 23:43:00,25.7,20.5,30.48,North,3,0.0,0.0,81,0.00,,CLR,0.00,VWS V14.01,2013-01-18 05:43:00,
2013-01-17 23:44:00,25.9,20.7,30.48,North,3,0.0,0.0,81,0.00,,OVC004,0.00,VWS V14.01,2013-01-18 05:44:00,
2013-01-17 23:46:00,25.9,20.7,30.48,North,3,0.0,0.0,81,0.00,,OVC004,0.00,VWS V14.01,2013-01-18 05:46:00,
2013-01-17 23:48:00,25.7,20.5,30.48,North,3,0.0,0.0,81,0.00,,CLR,0.00,VWS V14.01,2013-01-18 05:48:00,
2013-01-17 23:50:00,25.7,20.5,30.48,North,3,0.0,0.0,81,0.00,,OVC004,0.00,VWS V14.01,2013-01-18 05:50:00,
2013-01-17 23:52:00,25.7,20.5,30.48,North,3,0.0,0.0,81,0.00,,OVC004,0.00,VWS V14.01,2013-01-18 05:52:00,
2013-01-17 23:54:00,25.7,20.5,30.48,North,3,0.0,0.0,81,0.00,,CLR,0.00,VWS V14.01,2013-01-18 05:54:00,
2013-01-17 23:56:00,25.7,20.5,30.48,North,3,0.0,0.0,81,0.00,,OVC004,0.00,VWS V14.01,2013-01-18 05:56:00,
2013-01-17 23:58:00,25.5,20.4,30.48,North,3,0.0,0.0,81,0.00,,OVC004,0.00,VWS V14.01,2013-01-18 05:58:00,
2013-01-17 23:59:00,25.5,20.4,30.48,North,3,0.0,0.0,81,0.00,,CLR,0.00,VWS V14.01,2013-01-18 05:59:00,